<?xml version="1.0" encoding="UTF-8" standalone="no" ?>
<gpx xmlns="http://www.topografix.com/GPX/1/1" xmlns:xsi="http://www.w3.org/2001/XMLSchema-instance" xsi:schemaLocation="http://www.topografix.com/GPX/1/1 http://www.topografix.com/GPX/1/1/gpx.xsd" version="1.1" creator="VisuGPX - https://www.visugpx.com">
  <metadata>
    <name>Sortie dégorgeage Périgueux</name>
    <desc><![CDATA[petit tour de périgueux sans dénivelé]]></desc>
  </metadata>
  <trk>
    <name><![CDATA[Px 60km]]></name>
    <trkseg>
      <trkpt lat="45.1884" lon="0.79108">
        <ele>94</ele>
        <time>2011-12-26T12:19:06Z</time>
      </trkpt>
      <trkpt lat="45.1884" lon="0.79107">
        <ele>94</ele>
        <time>2011-12-26T12:19:17Z</time>
      </trkpt>
      <trkpt lat="45.18841" lon="0.79105">
        <ele>94</ele>
        <time>2011-12-26T12:19:19Z</time>
      </trkpt>
      <trkpt lat="45.18847" lon="0.79106">
        <ele>94</ele>
        <time>2011-12-26T12:19:23Z</time>
      </trkpt>
      <trkpt lat="45.18855" lon="0.79126">
        <ele>95</ele>
        <time>2011-12-26T12:19:29Z</time>
      </trkpt>
      <trkpt lat="45.18869" lon="0.79125">
        <ele>95</ele>
        <time>2011-12-26T12:19:33Z</time>
      </trkpt>
      <trkpt lat="45.18882" lon="0.7912">
        <ele>94</ele>
        <time>2011-12-26T12:19:36Z</time>
      </trkpt>
      <trkpt lat="45.18902" lon="0.79113">
        <ele>95</ele>
        <time>2011-12-26T12:19:40Z</time>
      </trkpt>
      <trkpt lat="45.18924" lon="0.79137">
        <ele>93</ele>
        <time>2011-12-26T12:19:46Z</time>
      </trkpt>
      <trkpt lat="45.18946" lon="0.79278">
        <ele>94</ele>
        <time>2011-12-26T12:20:04Z</time>
      </trkpt>
      <trkpt lat="45.18957" lon="0.79312">
        <ele>94</ele>
        <time>2011-12-26T12:20:11Z</time>
      </trkpt>
      <trkpt lat="45.18968" lon="0.79308">
        <ele>93</ele>
        <time>2011-12-26T12:20:15Z</time>
      </trkpt>
      <trkpt lat="45.18985" lon="0.79294">
        <ele>93</ele>
        <time>2011-12-26T12:20:21Z</time>
      </trkpt>
      <trkpt lat="45.18984" lon="0.7926">
        <ele>93</ele>
        <time>2011-12-26T12:20:27Z</time>
      </trkpt>
      <trkpt lat="45.18963" lon="0.79104">
        <ele>93</ele>
        <time>2011-12-26T12:20:46Z</time>
      </trkpt>
      <trkpt lat="45.18931" lon="0.78939">
        <ele>92</ele>
        <time>2011-12-26T12:21:04Z</time>
      </trkpt>
      <trkpt lat="45.18876" lon="0.78812">
        <ele>92</ele>
        <time>2011-12-26T12:21:20Z</time>
      </trkpt>
      <trkpt lat="45.18803" lon="0.78683">
        <ele>91</ele>
        <time>2011-12-26T12:21:39Z</time>
      </trkpt>
      <trkpt lat="45.1876" lon="0.78606">
        <ele>93</ele>
        <time>2011-12-26T12:21:51Z</time>
      </trkpt>
      <trkpt lat="45.18757" lon="0.7856">
        <ele>93</ele>
        <time>2011-12-26T12:21:57Z</time>
      </trkpt>
      <trkpt lat="45.18737" lon="0.78533">
        <ele>94</ele>
        <time>2011-12-26T12:22:02Z</time>
      </trkpt>
      <trkpt lat="45.18725" lon="0.78527">
        <ele>94</ele>
        <time>2011-12-26T12:22:04Z</time>
      </trkpt>
      <trkpt lat="45.187" lon="0.78502">
        <ele>94</ele>
        <time>2011-12-26T12:22:09Z</time>
      </trkpt>
      <trkpt lat="45.18624" lon="0.78369">
        <ele>97</ele>
        <time>2011-12-26T12:22:29Z</time>
      </trkpt>
      <trkpt lat="45.18598" lon="0.78322">
        <ele>97</ele>
        <time>2011-12-26T12:22:36Z</time>
      </trkpt>
      <trkpt lat="45.18588" lon="0.78272">
        <ele>97</ele>
        <time>2011-12-26T12:22:43Z</time>
      </trkpt>
      <trkpt lat="45.1859" lon="0.78257">
        <ele>97</ele>
        <time>2011-12-26T12:22:45Z</time>
      </trkpt>
      <trkpt lat="45.18562" lon="0.78224">
        <ele>98</ele>
        <time>2011-12-26T12:22:52Z</time>
      </trkpt>
      <trkpt lat="45.18551" lon="0.78222">
        <ele>98</ele>
        <time>2011-12-26T12:22:54Z</time>
      </trkpt>
      <trkpt lat="45.18497" lon="0.78139">
        <ele>99</ele>
        <time>2011-12-26T12:23:07Z</time>
      </trkpt>
      <trkpt lat="45.18408" lon="0.77963">
        <ele>96</ele>
        <time>2011-12-26T12:23:31Z</time>
      </trkpt>
      <trkpt lat="45.18382" lon="0.77818">
        <ele>95</ele>
        <time>2011-12-26T12:23:47Z</time>
      </trkpt>
      <trkpt lat="45.18378" lon="0.77674">
        <ele>95</ele>
        <time>2011-12-26T12:24:02Z</time>
      </trkpt>
      <trkpt lat="45.18375" lon="0.77589">
        <ele>95</ele>
        <time>2011-12-26T12:24:11Z</time>
      </trkpt>
      <trkpt lat="45.18383" lon="0.77559">
        <ele>94</ele>
        <time>2011-12-26T12:24:15Z</time>
      </trkpt>
      <trkpt lat="45.18392" lon="0.77549">
        <ele>94</ele>
        <time>2011-12-26T12:24:17Z</time>
      </trkpt>
      <trkpt lat="45.18387" lon="0.77479">
        <ele>93</ele>
        <time>2011-12-26T12:24:25Z</time>
      </trkpt>
      <trkpt lat="45.18383" lon="0.77425">
        <ele>93</ele>
        <time>2011-12-26T12:24:31Z</time>
      </trkpt>
      <trkpt lat="45.18385" lon="0.77276">
        <ele>94</ele>
        <time>2011-12-26T12:24:49Z</time>
      </trkpt>
      <trkpt lat="45.18374" lon="0.77141">
        <ele>94</ele>
        <time>2011-12-26T12:25:04Z</time>
      </trkpt>
      <trkpt lat="45.18367" lon="0.77037">
        <ele>94</ele>
        <time>2011-12-26T12:25:17Z</time>
      </trkpt>
      <trkpt lat="45.18371" lon="0.76998">
        <ele>93</ele>
        <time>2011-12-26T12:25:22Z</time>
      </trkpt>
      <trkpt lat="45.18352" lon="0.76965">
        <ele>93</ele>
        <time>2011-12-26T12:25:27Z</time>
      </trkpt>
      <trkpt lat="45.18341" lon="0.76955">
        <ele>94</ele>
        <time>2011-12-26T12:25:29Z</time>
      </trkpt>
      <trkpt lat="45.18296" lon="0.76833">
        <ele>93</ele>
        <time>2011-12-26T12:25:44Z</time>
      </trkpt>
      <trkpt lat="45.18291" lon="0.76713">
        <ele>91</ele>
        <time>2011-12-26T12:25:58Z</time>
      </trkpt>
      <trkpt lat="45.18295" lon="0.76574">
        <ele>90</ele>
        <time>2011-12-26T12:26:13Z</time>
      </trkpt>
      <trkpt lat="45.18314" lon="0.76532">
        <ele>89</ele>
        <time>2011-12-26T12:26:19Z</time>
      </trkpt>
      <trkpt lat="45.18301" lon="0.76474">
        <ele>89</ele>
        <time>2011-12-26T12:26:26Z</time>
      </trkpt>
      <trkpt lat="45.18296" lon="0.76456">
        <ele>89</ele>
        <time>2011-12-26T12:26:28Z</time>
      </trkpt>
      <trkpt lat="45.18284" lon="0.76363">
        <ele>90</ele>
        <time>2011-12-26T12:26:38Z</time>
      </trkpt>
      <trkpt lat="45.18282" lon="0.76306">
        <ele>91</ele>
        <time>2011-12-26T12:26:45Z</time>
      </trkpt>
      <trkpt lat="45.18241" lon="0.76197">
        <ele>92</ele>
        <time>2011-12-26T12:26:58Z</time>
      </trkpt>
      <trkpt lat="45.18226" lon="0.76172">
        <ele>92</ele>
        <time>2011-12-26T12:27:02Z</time>
      </trkpt>
      <trkpt lat="45.18196" lon="0.76089">
        <ele>94</ele>
        <time>2011-12-26T12:27:13Z</time>
      </trkpt>
      <trkpt lat="45.18192" lon="0.76057">
        <ele>94</ele>
        <time>2011-12-26T12:27:17Z</time>
      </trkpt>
      <trkpt lat="45.18198" lon="0.76018">
        <ele>95</ele>
        <time>2011-12-26T12:27:22Z</time>
      </trkpt>
      <trkpt lat="45.18188" lon="0.75985">
        <ele>96</ele>
        <time>2011-12-26T12:27:27Z</time>
      </trkpt>
      <trkpt lat="45.18175" lon="0.75967">
        <ele>96</ele>
        <time>2011-12-26T12:27:35Z</time>
      </trkpt>
      <trkpt lat="45.18174" lon="0.75966">
        <ele>96</ele>
        <time>2011-12-26T12:27:42Z</time>
      </trkpt>
      <trkpt lat="45.18183" lon="0.75944">
        <ele>96</ele>
        <time>2011-12-26T12:27:49Z</time>
      </trkpt>
      <trkpt lat="45.1819" lon="0.75925">
        <ele>96</ele>
        <time>2011-12-26T12:27:52Z</time>
      </trkpt>
      <trkpt lat="45.18204" lon="0.75813">
        <ele>96</ele>
        <time>2011-12-26T12:28:05Z</time>
      </trkpt>
      <trkpt lat="45.18214" lon="0.75623">
        <ele>99</ele>
        <time>2011-12-26T12:28:25Z</time>
      </trkpt>
      <trkpt lat="45.18209" lon="0.75587">
        <ele>99</ele>
        <time>2011-12-26T12:28:29Z</time>
      </trkpt>
      <trkpt lat="45.18185" lon="0.75415">
        <ele>98</ele>
        <time>2011-12-26T12:28:49Z</time>
      </trkpt>
      <trkpt lat="45.18184" lon="0.75297">
        <ele>98</ele>
        <time>2011-12-26T12:29:03Z</time>
      </trkpt>
      <trkpt lat="45.18197" lon="0.7508">
        <ele>102</ele>
        <time>2011-12-26T12:29:27Z</time>
      </trkpt>
      <trkpt lat="45.18187" lon="0.75031">
        <ele>104</ele>
        <time>2011-12-26T12:29:33Z</time>
      </trkpt>
      <trkpt lat="45.18147" lon="0.74991">
        <ele>109</ele>
        <time>2011-12-26T12:29:41Z</time>
      </trkpt>
      <trkpt lat="45.18056" lon="0.74894">
        <ele>113</ele>
        <time>2011-12-26T12:30:00Z</time>
      </trkpt>
      <trkpt lat="45.18042" lon="0.74824">
        <ele>115</ele>
        <time>2011-12-26T12:30:09Z</time>
      </trkpt>
      <trkpt lat="45.18054" lon="0.74783">
        <ele>115</ele>
        <time>2011-12-26T12:30:14Z</time>
      </trkpt>
      <trkpt lat="45.18052" lon="0.74745">
        <ele>115</ele>
        <time>2011-12-26T12:30:19Z</time>
      </trkpt>
      <trkpt lat="45.18038" lon="0.74692">
        <ele>116</ele>
        <time>2011-12-26T12:30:32Z</time>
      </trkpt>
      <trkpt lat="45.18031" lon="0.74667">
        <ele>116</ele>
        <time>2011-12-26T12:30:54Z</time>
      </trkpt>
      <trkpt lat="45.17992" lon="0.74553">
        <ele>117</ele>
        <time>2011-12-26T12:31:10Z</time>
      </trkpt>
      <trkpt lat="45.17947" lon="0.74413">
        <ele>113</ele>
        <time>2011-12-26T12:31:27Z</time>
      </trkpt>
      <trkpt lat="45.17891" lon="0.74221">
        <ele>113</ele>
        <time>2011-12-26T12:31:47Z</time>
      </trkpt>
      <trkpt lat="45.17885" lon="0.74057">
        <ele>110</ele>
        <time>2011-12-26T12:32:03Z</time>
      </trkpt>
      <trkpt lat="45.17889" lon="0.73914">
        <ele>107</ele>
        <time>2011-12-26T12:32:20Z</time>
      </trkpt>
      <trkpt lat="45.17889" lon="0.73788">
        <ele>105</ele>
        <time>2011-12-26T12:32:34Z</time>
      </trkpt>
      <trkpt lat="45.17873" lon="0.73631">
        <ele>101</ele>
        <time>2011-12-26T12:32:49Z</time>
      </trkpt>
      <trkpt lat="45.17834" lon="0.73483">
        <ele>99</ele>
        <time>2011-12-26T12:33:03Z</time>
      </trkpt>
      <trkpt lat="45.17778" lon="0.73299">
        <ele>100</ele>
        <time>2011-12-26T12:33:23Z</time>
      </trkpt>
      <trkpt lat="45.17731" lon="0.7321">
        <ele>101</ele>
        <time>2011-12-26T12:33:36Z</time>
      </trkpt>
      <trkpt lat="45.17725" lon="0.73183">
        <ele>101</ele>
        <time>2011-12-26T12:33:40Z</time>
      </trkpt>
      <trkpt lat="45.17725" lon="0.73167">
        <ele>101</ele>
        <time>2011-12-26T12:33:42Z</time>
      </trkpt>
      <trkpt lat="45.17719" lon="0.73141">
        <ele>102</ele>
        <time>2011-12-26T12:33:46Z</time>
      </trkpt>
      <trkpt lat="45.17722" lon="0.73113">
        <ele>103</ele>
        <time>2011-12-26T12:33:50Z</time>
      </trkpt>
      <trkpt lat="45.17735" lon="0.7308">
        <ele>104</ele>
        <time>2011-12-26T12:33:55Z</time>
      </trkpt>
      <trkpt lat="45.17741" lon="0.73058">
        <ele>104</ele>
        <time>2011-12-26T12:33:58Z</time>
      </trkpt>
      <trkpt lat="45.17772" lon="0.72926">
        <ele>100</ele>
        <time>2011-12-26T12:34:13Z</time>
      </trkpt>
      <trkpt lat="45.17788" lon="0.72893">
        <ele>99</ele>
        <time>2011-12-26T12:34:22Z</time>
      </trkpt>
      <trkpt lat="45.17788" lon="0.72895">
        <ele>99</ele>
        <time>2011-12-26T12:34:45Z</time>
      </trkpt>
      <trkpt lat="45.17781" lon="0.72902">
        <ele>99</ele>
        <time>2011-12-26T12:34:49Z</time>
      </trkpt>
      <trkpt lat="45.17764" lon="0.72939">
        <ele>100</ele>
        <time>2011-12-26T12:34:55Z</time>
      </trkpt>
      <trkpt lat="45.17741" lon="0.73032">
        <ele>103</ele>
        <time>2011-12-26T12:35:05Z</time>
      </trkpt>
      <trkpt lat="45.17738" lon="0.7305">
        <ele>104</ele>
        <time>2011-12-26T12:35:07Z</time>
      </trkpt>
      <trkpt lat="45.17717" lon="0.73117">
        <ele>103</ele>
        <time>2011-12-26T12:35:16Z</time>
      </trkpt>
      <trkpt lat="45.17711" lon="0.73137">
        <ele>103</ele>
        <time>2011-12-26T12:35:19Z</time>
      </trkpt>
      <trkpt lat="45.17701" lon="0.73166">
        <ele>102</ele>
        <time>2011-12-26T12:35:23Z</time>
      </trkpt>
      <trkpt lat="45.17682" lon="0.73192">
        <ele>102</ele>
        <time>2011-12-26T12:35:28Z</time>
      </trkpt>
      <trkpt lat="45.17601" lon="0.73256">
        <ele>104</ele>
        <time>2011-12-26T12:35:39Z</time>
      </trkpt>
      <trkpt lat="45.17522" lon="0.73308">
        <ele>105</ele>
        <time>2011-12-26T12:35:52Z</time>
      </trkpt>
      <trkpt lat="45.17409" lon="0.73358">
        <ele>108</ele>
        <time>2011-12-26T12:36:12Z</time>
      </trkpt>
      <trkpt lat="45.17317" lon="0.73419">
        <ele>109</ele>
        <time>2011-12-26T12:36:29Z</time>
      </trkpt>
      <trkpt lat="45.17199" lon="0.73515">
        <ele>113</ele>
        <time>2011-12-26T12:36:51Z</time>
      </trkpt>
      <trkpt lat="45.17178" lon="0.73538">
        <ele>113</ele>
        <time>2011-12-26T12:36:55Z</time>
      </trkpt>
      <trkpt lat="45.17048" lon="0.73627">
        <ele>115</ele>
        <time>2011-12-26T12:37:17Z</time>
      </trkpt>
      <trkpt lat="45.16941" lon="0.73694">
        <ele>118</ele>
        <time>2011-12-26T12:37:33Z</time>
      </trkpt>
      <trkpt lat="45.16847" lon="0.73745">
        <ele>118</ele>
        <time>2011-12-26T12:37:47Z</time>
      </trkpt>
      <trkpt lat="45.16699" lon="0.73814">
        <ele>123</ele>
        <time>2011-12-26T12:38:11Z</time>
      </trkpt>
      <trkpt lat="45.1665" lon="0.73843">
        <ele>122</ele>
        <time>2011-12-26T12:38:19Z</time>
      </trkpt>
      <trkpt lat="45.16547" lon="0.73895">
        <ele>127</ele>
        <time>2011-12-26T12:38:37Z</time>
      </trkpt>
      <trkpt lat="45.16417" lon="0.73949">
        <ele>130</ele>
        <time>2011-12-26T12:38:59Z</time>
      </trkpt>
      <trkpt lat="45.16367" lon="0.73956">
        <ele>130</ele>
        <time>2011-12-26T12:39:07Z</time>
      </trkpt>
      <trkpt lat="45.16275" lon="0.74002">
        <ele>127</ele>
        <time>2011-12-26T12:39:23Z</time>
      </trkpt>
      <trkpt lat="45.16168" lon="0.74026">
        <ele>127</ele>
        <time>2011-12-26T12:39:41Z</time>
      </trkpt>
      <trkpt lat="45.16037" lon="0.74055">
        <ele>134</ele>
        <time>2011-12-26T12:40:04Z</time>
      </trkpt>
      <trkpt lat="45.15978" lon="0.74064">
        <ele>140</ele>
        <time>2011-12-26T12:40:14Z</time>
      </trkpt>
      <trkpt lat="45.15956" lon="0.74074">
        <ele>142</ele>
        <time>2011-12-26T12:40:18Z</time>
      </trkpt>
      <trkpt lat="45.15862" lon="0.7415">
        <ele>144</ele>
        <time>2011-12-26T12:40:37Z</time>
      </trkpt>
      <trkpt lat="45.15836" lon="0.7417">
        <ele>144</ele>
        <time>2011-12-26T12:40:42Z</time>
      </trkpt>
      <trkpt lat="45.15735" lon="0.74191">
        <ele>149</ele>
        <time>2011-12-26T12:40:59Z</time>
      </trkpt>
      <trkpt lat="45.15672" lon="0.74178">
        <ele>151</ele>
        <time>2011-12-26T12:41:09Z</time>
      </trkpt>
      <trkpt lat="45.15641" lon="0.74173">
        <ele>152</ele>
        <time>2011-12-26T12:41:14Z</time>
      </trkpt>
      <trkpt lat="45.15532" lon="0.74183">
        <ele>152</ele>
        <time>2011-12-26T12:41:31Z</time>
      </trkpt>
      <trkpt lat="45.15395" lon="0.74243">
        <ele>153</ele>
        <time>2011-12-26T12:41:53Z</time>
      </trkpt>
      <trkpt lat="45.15306" lon="0.74307">
        <ele>161</ele>
        <time>2011-12-26T12:42:10Z</time>
      </trkpt>
      <trkpt lat="45.15228" lon="0.74399">
        <ele>162</ele>
        <time>2011-12-26T12:42:26Z</time>
      </trkpt>
      <trkpt lat="45.15171" lon="0.74511">
        <ele>163</ele>
        <time>2011-12-26T12:42:42Z</time>
      </trkpt>
      <trkpt lat="45.15118" lon="0.74622">
        <ele>164</ele>
        <time>2011-12-26T12:43:00Z</time>
      </trkpt>
      <trkpt lat="45.15112" lon="0.74632">
        <ele>164</ele>
        <time>2011-12-26T12:43:02Z</time>
      </trkpt>
      <trkpt lat="45.15092" lon="0.74646">
        <ele>164</ele>
        <time>2011-12-26T12:43:07Z</time>
      </trkpt>
      <trkpt lat="45.15013" lon="0.74641">
        <ele>168</ele>
        <time>2011-12-26T12:43:24Z</time>
      </trkpt>
      <trkpt lat="45.14925" lon="0.74631">
        <ele>176</ele>
        <time>2011-12-26T12:43:44Z</time>
      </trkpt>
      <trkpt lat="45.14863" lon="0.74642">
        <ele>179</ele>
        <time>2011-12-26T12:43:58Z</time>
      </trkpt>
      <trkpt lat="45.14785" lon="0.74671">
        <ele>184</ele>
        <time>2011-12-26T12:44:16Z</time>
      </trkpt>
      <trkpt lat="45.14706" lon="0.74678">
        <ele>189</ele>
        <time>2011-12-26T12:44:34Z</time>
      </trkpt>
      <trkpt lat="45.14626" lon="0.74667">
        <ele>192</ele>
        <time>2011-12-26T12:44:52Z</time>
      </trkpt>
      <trkpt lat="45.14552" lon="0.74649">
        <ele>193</ele>
        <time>2011-12-26T12:45:09Z</time>
      </trkpt>
      <trkpt lat="45.14473" lon="0.7462">
        <ele>197</ele>
        <time>2011-12-26T12:45:27Z</time>
      </trkpt>
      <trkpt lat="45.14421" lon="0.74603">
        <ele>199</ele>
        <time>2011-12-26T12:45:39Z</time>
      </trkpt>
      <trkpt lat="45.14407" lon="0.74598">
        <ele>202</ele>
        <time>2011-12-26T12:45:42Z</time>
      </trkpt>
      <trkpt lat="45.14366" lon="0.74589">
        <ele>203</ele>
        <time>2011-12-26T12:45:51Z</time>
      </trkpt>
      <trkpt lat="45.14356" lon="0.74589">
        <ele>204</ele>
        <time>2011-12-26T12:45:53Z</time>
      </trkpt>
      <trkpt lat="45.14343" lon="0.74592">
        <ele>205</ele>
        <time>2011-12-26T12:45:56Z</time>
      </trkpt>
      <trkpt lat="45.14318" lon="0.74611">
        <ele>210</ele>
        <time>2011-12-26T12:46:02Z</time>
      </trkpt>
      <trkpt lat="45.14307" lon="0.74633">
        <ele>211</ele>
        <time>2011-12-26T12:46:06Z</time>
      </trkpt>
      <trkpt lat="45.14278" lon="0.74748">
        <ele>214</ele>
        <time>2011-12-26T12:46:24Z</time>
      </trkpt>
      <trkpt lat="45.14273" lon="0.74793">
        <ele>215</ele>
        <time>2011-12-26T12:46:30Z</time>
      </trkpt>
      <trkpt lat="45.14273" lon="0.74869">
        <ele>217</ele>
        <time>2011-12-26T12:46:40Z</time>
      </trkpt>
      <trkpt lat="45.14269" lon="0.74899">
        <ele>218</ele>
        <time>2011-12-26T12:46:44Z</time>
      </trkpt>
      <trkpt lat="45.14244" lon="0.74956">
        <ele>221</ele>
        <time>2011-12-26T12:46:52Z</time>
      </trkpt>
      <trkpt lat="45.14165" lon="0.7504">
        <ele>223</ele>
        <time>2011-12-26T12:47:09Z</time>
      </trkpt>
      <trkpt lat="45.14062" lon="0.75142">
        <ele>225</ele>
        <time>2011-12-26T12:47:30Z</time>
      </trkpt>
      <trkpt lat="45.14048" lon="0.75161">
        <ele>226</ele>
        <time>2011-12-26T12:47:33Z</time>
      </trkpt>
      <trkpt lat="45.14028" lon="0.75179">
        <ele>225</ele>
        <time>2011-12-26T12:47:37Z</time>
      </trkpt>
      <trkpt lat="45.14009" lon="0.75199">
        <ele>225</ele>
        <time>2011-12-26T12:47:41Z</time>
      </trkpt>
      <trkpt lat="45.13964" lon="0.75219">
        <ele>230</ele>
        <time>2011-12-26T12:47:49Z</time>
      </trkpt>
      <trkpt lat="45.13928" lon="0.75227">
        <ele>230</ele>
        <time>2011-12-26T12:47:55Z</time>
      </trkpt>
      <trkpt lat="45.13867" lon="0.75275">
        <ele>227</ele>
        <time>2011-12-26T12:48:07Z</time>
      </trkpt>
      <trkpt lat="45.13837" lon="0.75329">
        <ele>226</ele>
        <time>2011-12-26T12:48:14Z</time>
      </trkpt>
      <trkpt lat="45.13835" lon="0.7542">
        <ele>223</ele>
        <time>2011-12-26T12:48:23Z</time>
      </trkpt>
      <trkpt lat="45.13852" lon="0.75584">
        <ele>220</ele>
        <time>2011-12-26T12:48:38Z</time>
      </trkpt>
      <trkpt lat="45.13844" lon="0.75641">
        <ele>221</ele>
        <time>2011-12-26T12:48:43Z</time>
      </trkpt>
      <trkpt lat="45.13817" lon="0.75691">
        <ele>215</ele>
        <time>2011-12-26T12:48:48Z</time>
      </trkpt>
      <trkpt lat="45.13796" lon="0.75714">
        <ele>213</ele>
        <time>2011-12-26T12:48:51Z</time>
      </trkpt>
      <trkpt lat="45.13762" lon="0.75798">
        <ele>212</ele>
        <time>2011-12-26T12:48:59Z</time>
      </trkpt>
      <trkpt lat="45.13767" lon="0.75939">
        <ele>211</ele>
        <time>2011-12-26T12:49:10Z</time>
      </trkpt>
      <trkpt lat="45.13761" lon="0.75989">
        <ele>209</ele>
        <time>2011-12-26T12:49:14Z</time>
      </trkpt>
      <trkpt lat="45.13755" lon="0.76014">
        <ele>208</ele>
        <time>2011-12-26T12:49:16Z</time>
      </trkpt>
      <trkpt lat="45.13749" lon="0.76065">
        <ele>199</ele>
        <time>2011-12-26T12:49:20Z</time>
      </trkpt>
      <trkpt lat="45.13755" lon="0.76143">
        <ele>207</ele>
        <time>2011-12-26T12:49:26Z</time>
      </trkpt>
      <trkpt lat="45.13733" lon="0.76218">
        <ele>203</ele>
        <time>2011-12-26T12:49:33Z</time>
      </trkpt>
      <trkpt lat="45.13698" lon="0.76189">
        <ele>202</ele>
        <time>2011-12-26T12:49:38Z</time>
      </trkpt>
      <trkpt lat="45.13681" lon="0.7614">
        <ele>200</ele>
        <time>2011-12-26T12:49:42Z</time>
      </trkpt>
      <trkpt lat="45.13623" lon="0.75857">
        <ele>187</ele>
        <time>2011-12-26T12:50:02Z</time>
      </trkpt>
      <trkpt lat="45.13617" lon="0.75843">
        <ele>187</ele>
        <time>2011-12-26T12:50:03Z</time>
      </trkpt>
      <trkpt lat="45.13568" lon="0.75787">
        <ele>182</ele>
        <time>2011-12-26T12:50:09Z</time>
      </trkpt>
      <trkpt lat="45.13549" lon="0.75776">
        <ele>181</ele>
        <time>2011-12-26T12:50:11Z</time>
      </trkpt>
      <trkpt lat="45.13514" lon="0.75781">
        <ele>180</ele>
        <time>2011-12-26T12:50:15Z</time>
      </trkpt>
      <trkpt lat="45.13481" lon="0.75769">
        <ele>178</ele>
        <time>2011-12-26T12:50:19Z</time>
      </trkpt>
      <trkpt lat="45.13439" lon="0.75758">
        <ele>177</ele>
        <time>2011-12-26T12:50:24Z</time>
      </trkpt>
      <trkpt lat="45.13408" lon="0.75671">
        <ele>178</ele>
        <time>2011-12-26T12:50:33Z</time>
      </trkpt>
      <trkpt lat="45.13437" lon="0.75502">
        <ele>177</ele>
        <time>2011-12-26T12:50:48Z</time>
      </trkpt>
      <trkpt lat="45.13449" lon="0.75417">
        <ele>176</ele>
        <time>2011-12-26T12:50:55Z</time>
      </trkpt>
      <trkpt lat="45.13472" lon="0.75277">
        <ele>175</ele>
        <time>2011-12-26T12:51:05Z</time>
      </trkpt>
      <trkpt lat="45.13462" lon="0.75141">
        <ele>171</ele>
        <time>2011-12-26T12:51:16Z</time>
      </trkpt>
      <trkpt lat="45.13398" lon="0.74911">
        <ele>169</ele>
        <time>2011-12-26T12:51:37Z</time>
      </trkpt>
      <trkpt lat="45.13347" lon="0.74677">
        <ele>171</ele>
        <time>2011-12-26T12:51:58Z</time>
      </trkpt>
      <trkpt lat="45.13337" lon="0.7447">
        <ele>171</ele>
        <time>2011-12-26T12:52:16Z</time>
      </trkpt>
      <trkpt lat="45.13351" lon="0.743">
        <ele>170</ele>
        <time>2011-12-26T12:52:32Z</time>
      </trkpt>
      <trkpt lat="45.13399" lon="0.74047">
        <ele>169</ele>
        <time>2011-12-26T12:52:55Z</time>
      </trkpt>
      <trkpt lat="45.13454" lon="0.73766">
        <ele>162</ele>
        <time>2011-12-26T12:53:20Z</time>
      </trkpt>
      <trkpt lat="45.135" lon="0.7352">
        <ele>159</ele>
        <time>2011-12-26T12:53:43Z</time>
      </trkpt>
      <trkpt lat="45.13558" lon="0.73222">
        <ele>159</ele>
        <time>2011-12-26T12:54:06Z</time>
      </trkpt>
      <trkpt lat="45.13609" lon="0.72956">
        <ele>155</ele>
        <time>2011-12-26T12:54:30Z</time>
      </trkpt>
      <trkpt lat="45.13656" lon="0.72714">
        <ele>154</ele>
        <time>2011-12-26T12:54:54Z</time>
      </trkpt>
      <trkpt lat="45.13683" lon="0.72592">
        <ele>152</ele>
        <time>2011-12-26T12:55:08Z</time>
      </trkpt>
      <trkpt lat="45.13744" lon="0.72418">
        <ele>147</ele>
        <time>2011-12-26T12:55:27Z</time>
      </trkpt>
      <trkpt lat="45.13814" lon="0.72221">
        <ele>147</ele>
        <time>2011-12-26T12:55:41Z</time>
      </trkpt>
      <trkpt lat="45.13864" lon="0.72045">
        <ele>142</ele>
        <time>2011-12-26T12:55:53Z</time>
      </trkpt>
      <trkpt lat="45.13923" lon="0.71939">
        <ele>142</ele>
        <time>2011-12-26T12:56:03Z</time>
      </trkpt>
      <trkpt lat="45.14031" lon="0.71765">
        <ele>140</ele>
        <time>2011-12-26T12:56:22Z</time>
      </trkpt>
      <trkpt lat="45.14161" lon="0.71519">
        <ele>141</ele>
        <time>2011-12-26T12:56:48Z</time>
      </trkpt>
      <trkpt lat="45.14199" lon="0.71334">
        <ele>139</ele>
        <time>2011-12-26T12:57:05Z</time>
      </trkpt>
      <trkpt lat="45.14198" lon="0.71134">
        <ele>134</ele>
        <time>2011-12-26T12:57:23Z</time>
      </trkpt>
      <trkpt lat="45.14164" lon="0.70782">
        <ele>134</ele>
        <time>2011-12-26T12:57:55Z</time>
      </trkpt>
      <trkpt lat="45.1411" lon="0.70543">
        <ele>135</ele>
        <time>2011-12-26T12:58:17Z</time>
      </trkpt>
      <trkpt lat="45.14056" lon="0.70304">
        <ele>133</ele>
        <time>2011-12-26T12:58:40Z</time>
      </trkpt>
      <trkpt lat="45.14041" lon="0.70236">
        <ele>128</ele>
        <time>2011-12-26T12:58:47Z</time>
      </trkpt>
      <trkpt lat="45.14" lon="0.70179">
        <ele>127</ele>
        <time>2011-12-26T12:58:56Z</time>
      </trkpt>
      <trkpt lat="45.13908" lon="0.70141">
        <ele>126</ele>
        <time>2011-12-26T12:59:10Z</time>
      </trkpt>
      <trkpt lat="45.13898" lon="0.70103">
        <ele>126</ele>
        <time>2011-12-26T12:59:17Z</time>
      </trkpt>
      <trkpt lat="45.13908" lon="0.70087">
        <ele>126</ele>
        <time>2011-12-26T12:59:21Z</time>
      </trkpt>
      <trkpt lat="45.13922" lon="0.70061">
        <ele>127</ele>
        <time>2011-12-26T12:59:26Z</time>
      </trkpt>
      <trkpt lat="45.13926" lon="0.70047">
        <ele>128</ele>
        <time>2011-12-26T12:59:28Z</time>
      </trkpt>
      <trkpt lat="45.13941" lon="0.70021">
        <ele>128</ele>
        <time>2011-12-26T12:59:32Z</time>
      </trkpt>
      <trkpt lat="45.14036" lon="0.69949">
        <ele>131</ele>
        <time>2011-12-26T12:59:48Z</time>
      </trkpt>
      <trkpt lat="45.1409" lon="0.69946">
        <ele>125</ele>
        <time>2011-12-26T12:59:56Z</time>
      </trkpt>
      <trkpt lat="45.14135" lon="0.69972">
        <ele>123</ele>
        <time>2011-12-26T13:00:03Z</time>
      </trkpt>
      <trkpt lat="45.14144" lon="0.6999">
        <ele>123</ele>
        <time>2011-12-26T13:00:05Z</time>
      </trkpt>
      <trkpt lat="45.14161" lon="0.70015">
        <ele>123</ele>
        <time>2011-12-26T13:00:08Z</time>
      </trkpt>
      <trkpt lat="45.14206" lon="0.6999">
        <ele>125</ele>
        <time>2011-12-26T13:00:15Z</time>
      </trkpt>
      <trkpt lat="45.14209" lon="0.6997">
        <ele>124</ele>
        <time>2011-12-26T13:00:17Z</time>
      </trkpt>
      <trkpt lat="45.1421" lon="0.69949">
        <ele>124</ele>
        <time>2011-12-26T13:00:19Z</time>
      </trkpt>
      <trkpt lat="45.1424" lon="0.69893">
        <ele>122</ele>
        <time>2011-12-26T13:00:26Z</time>
      </trkpt>
      <trkpt lat="45.14259" lon="0.69832">
        <ele>123</ele>
        <time>2011-12-26T13:00:32Z</time>
      </trkpt>
      <trkpt lat="45.14254" lon="0.69673">
        <ele>120</ele>
        <time>2011-12-26T13:00:45Z</time>
      </trkpt>
      <trkpt lat="45.14257" lon="0.69633">
        <ele>120</ele>
        <time>2011-12-26T13:00:48Z</time>
      </trkpt>
      <trkpt lat="45.14308" lon="0.69445">
        <ele>120</ele>
        <time>2011-12-26T13:01:04Z</time>
      </trkpt>
      <trkpt lat="45.14372" lon="0.69309">
        <ele>120</ele>
        <time>2011-12-26T13:01:17Z</time>
      </trkpt>
      <trkpt lat="45.14392" lon="0.69151">
        <ele>121</ele>
        <time>2011-12-26T13:01:29Z</time>
      </trkpt>
      <trkpt lat="45.14369" lon="0.69083">
        <ele>120</ele>
        <time>2011-12-26T13:01:35Z</time>
      </trkpt>
      <trkpt lat="45.14361" lon="0.69076">
        <ele>120</ele>
        <time>2011-12-26T13:01:36Z</time>
      </trkpt>
      <trkpt lat="45.14317" lon="0.69048">
        <ele>122</ele>
        <time>2011-12-26T13:01:44Z</time>
      </trkpt>
      <trkpt lat="45.14309" lon="0.69038">
        <ele>122</ele>
        <time>2011-12-26T13:01:46Z</time>
      </trkpt>
      <trkpt lat="45.14291" lon="0.68978">
        <ele>121</ele>
        <time>2011-12-26T13:01:52Z</time>
      </trkpt>
      <trkpt lat="45.14291" lon="0.68911">
        <ele>121</ele>
        <time>2011-12-26T13:01:57Z</time>
      </trkpt>
      <trkpt lat="45.14251" lon="0.68693">
        <ele>120</ele>
        <time>2011-12-26T13:02:16Z</time>
      </trkpt>
      <trkpt lat="45.14245" lon="0.68659">
        <ele>121</ele>
        <time>2011-12-26T13:02:19Z</time>
      </trkpt>
      <trkpt lat="45.14245" lon="0.68474">
        <ele>121</ele>
        <time>2011-12-26T13:02:35Z</time>
      </trkpt>
      <trkpt lat="45.14254" lon="0.6825">
        <ele>117</ele>
        <time>2011-12-26T13:02:53Z</time>
      </trkpt>
      <trkpt lat="45.14261" lon="0.67993">
        <ele>114</ele>
        <time>2011-12-26T13:03:14Z</time>
      </trkpt>
      <trkpt lat="45.14265" lon="0.67812">
        <ele>111</ele>
        <time>2011-12-26T13:03:30Z</time>
      </trkpt>
      <trkpt lat="45.14263" lon="0.67768">
        <ele>111</ele>
        <time>2011-12-26T13:03:34Z</time>
      </trkpt>
      <trkpt lat="45.14287" lon="0.67739">
        <ele>111</ele>
        <time>2011-12-26T13:03:39Z</time>
      </trkpt>
      <trkpt lat="45.14303" lon="0.67743">
        <ele>110</ele>
        <time>2011-12-26T13:03:41Z</time>
      </trkpt>
      <trkpt lat="45.14342" lon="0.67695">
        <ele>110</ele>
        <time>2011-12-26T13:03:48Z</time>
      </trkpt>
      <trkpt lat="45.14343" lon="0.67683">
        <ele>110</ele>
        <time>2011-12-26T13:03:49Z</time>
      </trkpt>
      <trkpt lat="45.14324" lon="0.67472">
        <ele>112</ele>
        <time>2011-12-26T13:04:06Z</time>
      </trkpt>
      <trkpt lat="45.14288" lon="0.6731">
        <ele>112</ele>
        <time>2011-12-26T13:04:20Z</time>
      </trkpt>
      <trkpt lat="45.14247" lon="0.67106">
        <ele>112</ele>
        <time>2011-12-26T13:04:38Z</time>
      </trkpt>
      <trkpt lat="45.14233" lon="0.66869">
        <ele>109</ele>
        <time>2011-12-26T13:04:58Z</time>
      </trkpt>
      <trkpt lat="45.14211" lon="0.66744">
        <ele>113</ele>
        <time>2011-12-26T13:05:09Z</time>
      </trkpt>
      <trkpt lat="45.14216" lon="0.66673">
        <ele>114</ele>
        <time>2011-12-26T13:05:15Z</time>
      </trkpt>
      <trkpt lat="45.14255" lon="0.66428">
        <ele>110</ele>
        <time>2011-12-26T13:05:36Z</time>
      </trkpt>
      <trkpt lat="45.14262" lon="0.66355">
        <ele>109</ele>
        <time>2011-12-26T13:05:42Z</time>
      </trkpt>
      <trkpt lat="45.14259" lon="0.66301">
        <ele>108</ele>
        <time>2011-12-26T13:05:46Z</time>
      </trkpt>
      <trkpt lat="45.14241" lon="0.66237">
        <ele>110</ele>
        <time>2011-12-26T13:05:51Z</time>
      </trkpt>
      <trkpt lat="45.14245" lon="0.66168">
        <ele>110</ele>
        <time>2011-12-26T13:05:58Z</time>
      </trkpt>
      <trkpt lat="45.1426" lon="0.66152">
        <ele>108</ele>
        <time>2011-12-26T13:06:02Z</time>
      </trkpt>
      <trkpt lat="45.14272" lon="0.66133">
        <ele>107</ele>
        <time>2011-12-26T13:06:06Z</time>
      </trkpt>
      <trkpt lat="45.14286" lon="0.66113">
        <ele>106</ele>
        <time>2011-12-26T13:06:09Z</time>
      </trkpt>
      <trkpt lat="45.14301" lon="0.66083">
        <ele>104</ele>
        <time>2011-12-26T13:06:12Z</time>
      </trkpt>
      <trkpt lat="45.14334" lon="0.65911">
        <ele>104</ele>
        <time>2011-12-26T13:06:25Z</time>
      </trkpt>
      <trkpt lat="45.14374" lon="0.65649">
        <ele>101</ele>
        <time>2011-12-26T13:06:44Z</time>
      </trkpt>
      <trkpt lat="45.14375" lon="0.65487">
        <ele>101</ele>
        <time>2011-12-26T13:06:57Z</time>
      </trkpt>
      <trkpt lat="45.14371" lon="0.65438">
        <ele>101</ele>
        <time>2011-12-26T13:07:01Z</time>
      </trkpt>
      <trkpt lat="45.14386" lon="0.65354">
        <ele>100</ele>
        <time>2011-12-26T13:07:08Z</time>
      </trkpt>
      <trkpt lat="45.1444" lon="0.6518">
        <ele>100</ele>
        <time>2011-12-26T13:07:24Z</time>
      </trkpt>
      <trkpt lat="45.14445" lon="0.65007">
        <ele>99</ele>
        <time>2011-12-26T13:07:39Z</time>
      </trkpt>
      <trkpt lat="45.14446" lon="0.64985">
        <ele>98</ele>
        <time>2011-12-26T13:07:41Z</time>
      </trkpt>
      <trkpt lat="45.14462" lon="0.64918">
        <ele>98</ele>
        <time>2011-12-26T13:07:47Z</time>
      </trkpt>
      <trkpt lat="45.1446" lon="0.64869">
        <ele>98</ele>
        <time>2011-12-26T13:07:51Z</time>
      </trkpt>
      <trkpt lat="45.14413" lon="0.64716">
        <ele>103</ele>
        <time>2011-12-26T13:08:03Z</time>
      </trkpt>
      <trkpt lat="45.14408" lon="0.64678">
        <ele>105</ele>
        <time>2011-12-26T13:08:06Z</time>
      </trkpt>
      <trkpt lat="45.14412" lon="0.64589">
        <ele>109</ele>
        <time>2011-12-26T13:08:15Z</time>
      </trkpt>
      <trkpt lat="45.14419" lon="0.64493">
        <ele>110</ele>
        <time>2011-12-26T13:08:27Z</time>
      </trkpt>
      <trkpt lat="45.1443" lon="0.64348">
        <ele>116</ele>
        <time>2011-12-26T13:08:48Z</time>
      </trkpt>
      <trkpt lat="45.14441" lon="0.64192">
        <ele>120</ele>
        <time>2011-12-26T13:09:04Z</time>
      </trkpt>
      <trkpt lat="45.1444" lon="0.64159">
        <ele>120</ele>
        <time>2011-12-26T13:09:08Z</time>
      </trkpt>
      <trkpt lat="45.14435" lon="0.64135">
        <ele>119</ele>
        <time>2011-12-26T13:09:11Z</time>
      </trkpt>
      <trkpt lat="45.14385" lon="0.63996">
        <ele>117</ele>
        <time>2011-12-26T13:09:25Z</time>
      </trkpt>
      <trkpt lat="45.14339" lon="0.63881">
        <ele>113</ele>
        <time>2011-12-26T13:09:37Z</time>
      </trkpt>
      <trkpt lat="45.14349" lon="0.63859">
        <ele>111</ele>
        <time>2011-12-26T13:09:44Z</time>
      </trkpt>
      <trkpt lat="45.14354" lon="0.63863">
        <ele>111</ele>
        <time>2011-12-26T13:09:45Z</time>
      </trkpt>
      <trkpt lat="45.14365" lon="0.63872">
        <ele>111</ele>
        <time>2011-12-26T13:09:47Z</time>
      </trkpt>
      <trkpt lat="45.14479" lon="0.63917">
        <ele>108</ele>
        <time>2011-12-26T13:10:03Z</time>
      </trkpt>
      <trkpt lat="45.14597" lon="0.63945">
        <ele>106</ele>
        <time>2011-12-26T13:10:18Z</time>
      </trkpt>
      <trkpt lat="45.1472" lon="0.63995">
        <ele>104</ele>
        <time>2011-12-26T13:10:34Z</time>
      </trkpt>
      <trkpt lat="45.14824" lon="0.63997">
        <ele>98</ele>
        <time>2011-12-26T13:10:44Z</time>
      </trkpt>
      <trkpt lat="45.14965" lon="0.63977">
        <ele>95</ele>
        <time>2011-12-26T13:10:59Z</time>
      </trkpt>
      <trkpt lat="45.15035" lon="0.63915">
        <ele>95</ele>
        <time>2011-12-26T13:11:07Z</time>
      </trkpt>
      <trkpt lat="45.15132" lon="0.63717">
        <ele>97</ele>
        <time>2011-12-26T13:11:23Z</time>
      </trkpt>
      <trkpt lat="45.15213" lon="0.63545">
        <ele>94</ele>
        <time>2011-12-26T13:11:39Z</time>
      </trkpt>
      <trkpt lat="45.15301" lon="0.63354">
        <ele>93</ele>
        <time>2011-12-26T13:11:57Z</time>
      </trkpt>
      <trkpt lat="45.15416" lon="0.63099">
        <ele>90</ele>
        <time>2011-12-26T13:12:21Z</time>
      </trkpt>
      <trkpt lat="45.15458" lon="0.63004">
        <ele>91</ele>
        <time>2011-12-26T13:12:30Z</time>
      </trkpt>
      <trkpt lat="45.15537" lon="0.62815">
        <ele>90</ele>
        <time>2011-12-26T13:12:48Z</time>
      </trkpt>
      <trkpt lat="45.15602" lon="0.62592">
        <ele>91</ele>
        <time>2011-12-26T13:13:08Z</time>
      </trkpt>
      <trkpt lat="45.15673" lon="0.62482">
        <ele>91</ele>
        <time>2011-12-26T13:13:20Z</time>
      </trkpt>
      <trkpt lat="45.15783" lon="0.62305">
        <ele>91</ele>
        <time>2011-12-26T13:13:39Z</time>
      </trkpt>
      <trkpt lat="45.15875" lon="0.61991">
        <ele>84</ele>
        <time>2011-12-26T13:14:07Z</time>
      </trkpt>
      <trkpt lat="45.1597" lon="0.61667">
        <ele>84</ele>
        <time>2011-12-26T13:14:36Z</time>
      </trkpt>
      <trkpt lat="45.16051" lon="0.61394">
        <ele>87</ele>
        <time>2011-12-26T13:15:01Z</time>
      </trkpt>
      <trkpt lat="45.1611" lon="0.61191">
        <ele>89</ele>
        <time>2011-12-26T13:15:20Z</time>
      </trkpt>
      <trkpt lat="45.1617" lon="0.60993">
        <ele>91</ele>
        <time>2011-12-26T13:15:39Z</time>
      </trkpt>
      <trkpt lat="45.16237" lon="0.60773">
        <ele>90</ele>
        <time>2011-12-26T13:15:59Z</time>
      </trkpt>
      <trkpt lat="45.16298" lon="0.60574">
        <ele>90</ele>
        <time>2011-12-26T13:16:17Z</time>
      </trkpt>
      <trkpt lat="45.16352" lon="0.60394">
        <ele>90</ele>
        <time>2011-12-26T13:16:35Z</time>
      </trkpt>
      <trkpt lat="45.16399" lon="0.60241">
        <ele>90</ele>
        <time>2011-12-26T13:16:52Z</time>
      </trkpt>
      <trkpt lat="45.16439" lon="0.60113">
        <ele>88</ele>
        <time>2011-12-26T13:17:05Z</time>
      </trkpt>
      <trkpt lat="45.1647" lon="0.6009">
        <ele>87</ele>
        <time>2011-12-26T13:17:11Z</time>
      </trkpt>
      <trkpt lat="45.16529" lon="0.60089">
        <ele>84</ele>
        <time>2011-12-26T13:17:22Z</time>
      </trkpt>
      <trkpt lat="45.16544" lon="0.60091">
        <ele>84</ele>
        <time>2011-12-26T13:17:27Z</time>
      </trkpt>
      <trkpt lat="45.16549" lon="0.60095">
        <ele>84</ele>
        <time>2011-12-26T13:17:31Z</time>
      </trkpt>
      <trkpt lat="45.16553" lon="0.60094">
        <ele>84</ele>
        <time>2011-12-26T13:17:43Z</time>
      </trkpt>
      <trkpt lat="45.16574" lon="0.60102">
        <ele>83</ele>
        <time>2011-12-26T13:17:51Z</time>
      </trkpt>
      <trkpt lat="45.16594" lon="0.60092">
        <ele>82</ele>
        <time>2011-12-26T13:17:56Z</time>
      </trkpt>
      <trkpt lat="45.16643" lon="0.59976">
        <ele>77</ele>
        <time>2011-12-26T13:18:08Z</time>
      </trkpt>
      <trkpt lat="45.16687" lon="0.59842">
        <ele>75</ele>
        <time>2011-12-26T13:18:19Z</time>
      </trkpt>
      <trkpt lat="45.16706" lon="0.59796">
        <ele>74</ele>
        <time>2011-12-26T13:18:23Z</time>
      </trkpt>
      <trkpt lat="45.16779" lon="0.59714">
        <ele>72</ele>
        <time>2011-12-26T13:18:36Z</time>
      </trkpt>
      <trkpt lat="45.16887" lon="0.59609">
        <ele>72</ele>
        <time>2011-12-26T13:18:57Z</time>
      </trkpt>
      <trkpt lat="45.16973" lon="0.59528">
        <ele>75</ele>
        <time>2011-12-26T13:19:13Z</time>
      </trkpt>
      <trkpt lat="45.17087" lon="0.59416">
        <ele>78</ele>
        <time>2011-12-26T13:19:32Z</time>
      </trkpt>
      <trkpt lat="45.17171" lon="0.59334">
        <ele>76</ele>
        <time>2011-12-26T13:19:47Z</time>
      </trkpt>
      <trkpt lat="45.17247" lon="0.59259">
        <ele>77</ele>
        <time>2011-12-26T13:20:03Z</time>
      </trkpt>
      <trkpt lat="45.17252" lon="0.59254">
        <ele>77</ele>
        <time>2011-12-26T13:20:04Z</time>
      </trkpt>
      <trkpt lat="45.1727" lon="0.59239">
        <ele>78</ele>
        <time>2011-12-26T13:20:08Z</time>
      </trkpt>
      <trkpt lat="45.17317" lon="0.59176">
        <ele>79</ele>
        <time>2011-12-26T13:20:19Z</time>
      </trkpt>
      <trkpt lat="45.17331" lon="0.59148">
        <ele>81</ele>
        <time>2011-12-26T13:20:23Z</time>
      </trkpt>
      <trkpt lat="45.17343" lon="0.59126">
        <ele>82</ele>
        <time>2011-12-26T13:20:26Z</time>
      </trkpt>
      <trkpt lat="45.17399" lon="0.5904">
        <ele>84</ele>
        <time>2011-12-26T13:20:38Z</time>
      </trkpt>
      <trkpt lat="45.17425" lon="0.59004">
        <ele>85</ele>
        <time>2011-12-26T13:20:44Z</time>
      </trkpt>
      <trkpt lat="45.17435" lon="0.58994">
        <ele>86</ele>
        <time>2011-12-26T13:20:46Z</time>
      </trkpt>
      <trkpt lat="45.17472" lon="0.58984">
        <ele>86</ele>
        <time>2011-12-26T13:20:52Z</time>
      </trkpt>
      <trkpt lat="45.17577" lon="0.58997">
        <ele>88</ele>
        <time>2011-12-26T13:21:09Z</time>
      </trkpt>
      <trkpt lat="45.1773" lon="0.58961">
        <ele>91</ele>
        <time>2011-12-26T13:21:32Z</time>
      </trkpt>
      <trkpt lat="45.17885" lon="0.58925">
        <ele>95</ele>
        <time>2011-12-26T13:21:55Z</time>
      </trkpt>
      <trkpt lat="45.17957" lon="0.58887">
        <ele>99</ele>
        <time>2011-12-26T13:22:05Z</time>
      </trkpt>
      <trkpt lat="45.18026" lon="0.58834">
        <ele>96</ele>
        <time>2011-12-26T13:22:15Z</time>
      </trkpt>
      <trkpt lat="45.18075" lon="0.58794">
        <ele>101</ele>
        <time>2011-12-26T13:22:22Z</time>
      </trkpt>
      <trkpt lat="45.18099" lon="0.58768">
        <ele>97</ele>
        <time>2011-12-26T13:22:26Z</time>
      </trkpt>
      <trkpt lat="45.18141" lon="0.58721">
        <ele>102</ele>
        <time>2011-12-26T13:22:33Z</time>
      </trkpt>
      <trkpt lat="45.1818" lon="0.58676">
        <ele>99</ele>
        <time>2011-12-26T13:22:39Z</time>
      </trkpt>
      <trkpt lat="45.18242" lon="0.58598">
        <ele>103</ele>
        <time>2011-12-26T13:22:49Z</time>
      </trkpt>
      <trkpt lat="45.18254" lon="0.58582">
        <ele>103</ele>
        <time>2011-12-26T13:22:51Z</time>
      </trkpt>
      <trkpt lat="45.18302" lon="0.58545">
        <ele>104</ele>
        <time>2011-12-26T13:22:58Z</time>
      </trkpt>
      <trkpt lat="45.18359" lon="0.58505">
        <ele>99</ele>
        <time>2011-12-26T13:23:06Z</time>
      </trkpt>
      <trkpt lat="45.18409" lon="0.58462">
        <ele>104</ele>
        <time>2011-12-26T13:23:14Z</time>
      </trkpt>
      <trkpt lat="45.18493" lon="0.58426">
        <ele>96</ele>
        <time>2011-12-26T13:23:26Z</time>
      </trkpt>
      <trkpt lat="45.18639" lon="0.58335">
        <ele>96</ele>
        <time>2011-12-26T13:23:45Z</time>
      </trkpt>
      <trkpt lat="45.18653" lon="0.58327">
        <ele>99</ele>
        <time>2011-12-26T13:23:47Z</time>
      </trkpt>
      <trkpt lat="45.18674" lon="0.58319">
        <ele>98</ele>
        <time>2011-12-26T13:23:50Z</time>
      </trkpt>
      <trkpt lat="45.18708" lon="0.58301">
        <ele>98</ele>
        <time>2011-12-26T13:23:55Z</time>
      </trkpt>
      <trkpt lat="45.18765" lon="0.58229">
        <ele>98</ele>
        <time>2011-12-26T13:24:04Z</time>
      </trkpt>
      <trkpt lat="45.18851" lon="0.58081">
        <ele>106</ele>
        <time>2011-12-26T13:24:21Z</time>
      </trkpt>
      <trkpt lat="45.18909" lon="0.57953">
        <ele>109</ele>
        <time>2011-12-26T13:24:36Z</time>
      </trkpt>
      <trkpt lat="45.18975" lon="0.57831">
        <ele>109</ele>
        <time>2011-12-26T13:24:53Z</time>
      </trkpt>
      <trkpt lat="45.1905" lon="0.5774">
        <ele>108</ele>
        <time>2011-12-26T13:25:11Z</time>
      </trkpt>
      <trkpt lat="45.19125" lon="0.57643">
        <ele>105</ele>
        <time>2011-12-26T13:25:26Z</time>
      </trkpt>
      <trkpt lat="45.19267" lon="0.57462">
        <ele>103</ele>
        <time>2011-12-26T13:25:51Z</time>
      </trkpt>
      <trkpt lat="45.19298" lon="0.57338">
        <ele>104</ele>
        <time>2011-12-26T13:26:03Z</time>
      </trkpt>
      <trkpt lat="45.19312" lon="0.57121">
        <ele>108</ele>
        <time>2011-12-26T13:26:22Z</time>
      </trkpt>
      <trkpt lat="45.19329" lon="0.56898">
        <ele>108</ele>
        <time>2011-12-26T13:26:42Z</time>
      </trkpt>
      <trkpt lat="45.19333" lon="0.56853">
        <ele>111</ele>
        <time>2011-12-26T13:26:46Z</time>
      </trkpt>
      <trkpt lat="45.1937" lon="0.56788">
        <ele>112</ele>
        <time>2011-12-26T13:26:53Z</time>
      </trkpt>
      <trkpt lat="45.19477" lon="0.56716">
        <ele>111</ele>
        <time>2011-12-26T13:27:08Z</time>
      </trkpt>
      <trkpt lat="45.19485" lon="0.56711">
        <ele>111</ele>
        <time>2011-12-26T13:27:09Z</time>
      </trkpt>
      <trkpt lat="45.19524" lon="0.56638">
        <ele>109</ele>
        <time>2011-12-26T13:27:17Z</time>
      </trkpt>
      <trkpt lat="45.19559" lon="0.56404">
        <ele>111</ele>
        <time>2011-12-26T13:27:37Z</time>
      </trkpt>
      <trkpt lat="45.19616" lon="0.5615">
        <ele>115</ele>
        <time>2011-12-26T13:28:00Z</time>
      </trkpt>
      <trkpt lat="45.19673" lon="0.56018">
        <ele>115</ele>
        <time>2011-12-26T13:28:13Z</time>
      </trkpt>
      <trkpt lat="45.19721" lon="0.55912">
        <ele>117</ele>
        <time>2011-12-26T13:28:24Z</time>
      </trkpt>
      <trkpt lat="45.19787" lon="0.5582">
        <ele>121</ele>
        <time>2011-12-26T13:28:38Z</time>
      </trkpt>
      <trkpt lat="45.19818" lon="0.55781">
        <ele>122</ele>
        <time>2011-12-26T13:28:44Z</time>
      </trkpt>
      <trkpt lat="45.1987" lon="0.55717">
        <ele>122</ele>
        <time>2011-12-26T13:28:54Z</time>
      </trkpt>
      <trkpt lat="45.19879" lon="0.55704">
        <ele>122</ele>
        <time>2011-12-26T13:28:56Z</time>
      </trkpt>
      <trkpt lat="45.1992" lon="0.55654">
        <ele>121</ele>
        <time>2011-12-26T13:29:04Z</time>
      </trkpt>
      <trkpt lat="45.20006" lon="0.55557">
        <ele>118</ele>
        <time>2011-12-26T13:29:22Z</time>
      </trkpt>
      <trkpt lat="45.20085" lon="0.55498">
        <ele>116</ele>
        <time>2011-12-26T13:29:35Z</time>
      </trkpt>
      <trkpt lat="45.20182" lon="0.55428">
        <ele>120</ele>
        <time>2011-12-26T13:29:50Z</time>
      </trkpt>
      <trkpt lat="45.2026" lon="0.55338">
        <ele>123</ele>
        <time>2011-12-26T13:30:04Z</time>
      </trkpt>
      <trkpt lat="45.20325" lon="0.55252">
        <ele>123</ele>
        <time>2011-12-26T13:30:17Z</time>
      </trkpt>
      <trkpt lat="45.20388" lon="0.55197">
        <ele>122</ele>
        <time>2011-12-26T13:30:30Z</time>
      </trkpt>
      <trkpt lat="45.20478" lon="0.55132">
        <ele>124</ele>
        <time>2011-12-26T13:30:49Z</time>
      </trkpt>
      <trkpt lat="45.20579" lon="0.55056">
        <ele>125</ele>
        <time>2011-12-26T13:31:08Z</time>
      </trkpt>
      <trkpt lat="45.20661" lon="0.54993">
        <ele>125</ele>
        <time>2011-12-26T13:31:24Z</time>
      </trkpt>
      <trkpt lat="45.20757" lon="0.5491">
        <ele>127</ele>
        <time>2011-12-26T13:31:43Z</time>
      </trkpt>
      <trkpt lat="45.20831" lon="0.54806">
        <ele>128</ele>
        <time>2011-12-26T13:32:00Z</time>
      </trkpt>
      <trkpt lat="45.20922" lon="0.54727">
        <ele>132</ele>
        <time>2011-12-26T13:32:17Z</time>
      </trkpt>
      <trkpt lat="45.21024" lon="0.54642">
        <ele>132</ele>
        <time>2011-12-26T13:32:35Z</time>
      </trkpt>
      <trkpt lat="45.21135" lon="0.5457">
        <ele>132</ele>
        <time>2011-12-26T13:32:54Z</time>
      </trkpt>
      <trkpt lat="45.21199" lon="0.54567">
        <ele>134</ele>
        <time>2011-12-26T13:33:04Z</time>
      </trkpt>
      <trkpt lat="45.21336" lon="0.54602">
        <ele>135</ele>
        <time>2011-12-26T13:33:24Z</time>
      </trkpt>
      <trkpt lat="45.21478" lon="0.54638">
        <ele>139</ele>
        <time>2011-12-26T13:33:42Z</time>
      </trkpt>
      <trkpt lat="45.21594" lon="0.5468">
        <ele>146</ele>
        <time>2011-12-26T13:33:58Z</time>
      </trkpt>
      <trkpt lat="45.217" lon="0.54724">
        <ele>154</ele>
        <time>2011-12-26T13:34:15Z</time>
      </trkpt>
      <trkpt lat="45.21712" lon="0.54731">
        <ele>154</ele>
        <time>2011-12-26T13:34:17Z</time>
      </trkpt>
      <trkpt lat="45.21722" lon="0.54739">
        <ele>155</ele>
        <time>2011-12-26T13:34:19Z</time>
      </trkpt>
      <trkpt lat="45.21759" lon="0.54788">
        <ele>157</ele>
        <time>2011-12-26T13:34:28Z</time>
      </trkpt>
      <trkpt lat="45.21823" lon="0.54886">
        <ele>156</ele>
        <time>2011-12-26T13:34:45Z</time>
      </trkpt>
      <trkpt lat="45.2187" lon="0.54954">
        <ele>159</ele>
        <time>2011-12-26T13:34:56Z</time>
      </trkpt>
      <trkpt lat="45.21942" lon="0.55057">
        <ele>164</ele>
        <time>2011-12-26T13:35:12Z</time>
      </trkpt>
      <trkpt lat="45.22003" lon="0.55153">
        <ele>170</ele>
        <time>2011-12-26T13:35:28Z</time>
      </trkpt>
      <trkpt lat="45.22062" lon="0.55243">
        <ele>175</ele>
        <time>2011-12-26T13:35:45Z</time>
      </trkpt>
      <trkpt lat="45.22082" lon="0.55274">
        <ele>174</ele>
        <time>2011-12-26T13:35:51Z</time>
      </trkpt>
      <trkpt lat="45.2212" lon="0.55343">
        <ele>182</ele>
        <time>2011-12-26T13:36:04Z</time>
      </trkpt>
      <trkpt lat="45.22172" lon="0.55439">
        <ele>185</ele>
        <time>2011-12-26T13:36:22Z</time>
      </trkpt>
      <trkpt lat="45.22188" lon="0.55468">
        <ele>184</ele>
        <time>2011-12-26T13:36:27Z</time>
      </trkpt>
      <trkpt lat="45.22241" lon="0.55575">
        <ele>182</ele>
        <time>2011-12-26T13:36:39Z</time>
      </trkpt>
      <trkpt lat="45.22373" lon="0.55831">
        <ele>179</ele>
        <time>2011-12-26T13:37:03Z</time>
      </trkpt>
      <trkpt lat="45.22455" lon="0.55939">
        <ele>190</ele>
        <time>2011-12-26T13:37:18Z</time>
      </trkpt>
      <trkpt lat="45.22485" lon="0.55979">
        <ele>192</ele>
        <time>2011-12-26T13:37:25Z</time>
      </trkpt>
      <trkpt lat="45.22496" lon="0.56001">
        <ele>196</ele>
        <time>2011-12-26T13:37:29Z</time>
      </trkpt>
      <trkpt lat="45.22509" lon="0.56057">
        <ele>198</ele>
        <time>2011-12-26T13:37:44Z</time>
      </trkpt>
      <trkpt lat="45.22509" lon="0.56058">
        <ele>198</ele>
        <time>2011-12-26T13:38:07Z</time>
      </trkpt>
      <trkpt lat="45.22509" lon="0.56058">
        <ele>198</ele>
        <time>2011-12-26T13:38:10Z</time>
      </trkpt>
      <trkpt lat="45.22516" lon="0.56056">
        <ele>198</ele>
        <time>2011-12-26T13:38:23Z</time>
      </trkpt>
      <trkpt lat="45.22515" lon="0.56058">
        <ele>198</ele>
        <time>2011-12-26T13:38:37Z</time>
      </trkpt>
      <trkpt lat="45.22511" lon="0.56061">
        <ele>198</ele>
        <time>2011-12-26T13:38:41Z</time>
      </trkpt>
      <trkpt lat="45.22488" lon="0.56118">
        <ele>201</ele>
        <time>2011-12-26T13:38:56Z</time>
      </trkpt>
      <trkpt lat="45.22476" lon="0.56218">
        <ele>202</ele>
        <time>2011-12-26T13:39:12Z</time>
      </trkpt>
      <trkpt lat="45.22445" lon="0.56337">
        <ele>196</ele>
        <time>2011-12-26T13:39:24Z</time>
      </trkpt>
      <trkpt lat="45.22376" lon="0.56551">
        <ele>188</ele>
        <time>2011-12-26T13:39:40Z</time>
      </trkpt>
      <trkpt lat="45.22309" lon="0.568">
        <ele>186</ele>
        <time>2011-12-26T13:39:57Z</time>
      </trkpt>
      <trkpt lat="45.22322" lon="0.56974">
        <ele>184</ele>
        <time>2011-12-26T13:40:07Z</time>
      </trkpt>
      <trkpt lat="45.22343" lon="0.57177">
        <ele>177</ele>
        <time>2011-12-26T13:40:19Z</time>
      </trkpt>
      <trkpt lat="45.22374" lon="0.57374">
        <ele>176</ele>
        <time>2011-12-26T13:40:34Z</time>
      </trkpt>
      <trkpt lat="45.22421" lon="0.57598">
        <ele>170</ele>
        <time>2011-12-26T13:40:51Z</time>
      </trkpt>
      <trkpt lat="45.2247" lon="0.57894">
        <ele>171</ele>
        <time>2011-12-26T13:41:12Z</time>
      </trkpt>
      <trkpt lat="45.22467" lon="0.58126">
        <ele>165</ele>
        <time>2011-12-26T13:41:30Z</time>
      </trkpt>
      <trkpt lat="45.22489" lon="0.58324">
        <ele>162</ele>
        <time>2011-12-26T13:41:45Z</time>
      </trkpt>
      <trkpt lat="45.22539" lon="0.58512">
        <ele>161</ele>
        <time>2011-12-26T13:41:59Z</time>
      </trkpt>
      <trkpt lat="45.22582" lon="0.58732">
        <ele>157</ele>
        <time>2011-12-26T13:42:14Z</time>
      </trkpt>
      <trkpt lat="45.22579" lon="0.58778">
        <ele>156</ele>
        <time>2011-12-26T13:42:17Z</time>
      </trkpt>
      <trkpt lat="45.22523" lon="0.58928">
        <ele>156</ele>
        <time>2011-12-26T13:42:29Z</time>
      </trkpt>
      <trkpt lat="45.2251" lon="0.58947">
        <ele>156</ele>
        <time>2011-12-26T13:42:31Z</time>
      </trkpt>
      <trkpt lat="45.22347" lon="0.59103">
        <ele>149</ele>
        <time>2011-12-26T13:42:53Z</time>
      </trkpt>
      <trkpt lat="45.22217" lon="0.59262">
        <ele>148</ele>
        <time>2011-12-26T13:43:13Z</time>
      </trkpt>
      <trkpt lat="45.22088" lon="0.59425">
        <ele>146</ele>
        <time>2011-12-26T13:43:35Z</time>
      </trkpt>
      <trkpt lat="45.21972" lon="0.59589">
        <ele>147</ele>
        <time>2011-12-26T13:43:57Z</time>
      </trkpt>
      <trkpt lat="45.21882" lon="0.59734">
        <ele>147</ele>
        <time>2011-12-26T13:44:14Z</time>
      </trkpt>
      <trkpt lat="45.21767" lon="0.59836">
        <ele>143</ele>
        <time>2011-12-26T13:44:33Z</time>
      </trkpt>
      <trkpt lat="45.2165" lon="0.59951">
        <ele>142</ele>
        <time>2011-12-26T13:44:55Z</time>
      </trkpt>
      <trkpt lat="45.21546" lon="0.60071">
        <ele>138</ele>
        <time>2011-12-26T13:45:17Z</time>
      </trkpt>
      <trkpt lat="45.21459" lon="0.60176">
        <ele>133</ele>
        <time>2011-12-26T13:45:38Z</time>
      </trkpt>
      <trkpt lat="45.2139" lon="0.6026">
        <ele>137</ele>
        <time>2011-12-26T13:45:50Z</time>
      </trkpt>
      <trkpt lat="45.21263" lon="0.60385">
        <ele>134</ele>
        <time>2011-12-26T13:46:06Z</time>
      </trkpt>
      <trkpt lat="45.21107" lon="0.60458">
        <ele>133</ele>
        <time>2011-12-26T13:46:21Z</time>
      </trkpt>
      <trkpt lat="45.20951" lon="0.60558">
        <ele>131</ele>
        <time>2011-12-26T13:46:36Z</time>
      </trkpt>
      <trkpt lat="45.20799" lon="0.60703">
        <ele>126</ele>
        <time>2011-12-26T13:46:52Z</time>
      </trkpt>
      <trkpt lat="45.20625" lon="0.60858">
        <ele>122</ele>
        <time>2011-12-26T13:47:10Z</time>
      </trkpt>
      <trkpt lat="45.20413" lon="0.61021">
        <ele>114</ele>
        <time>2011-12-26T13:47:32Z</time>
      </trkpt>
      <trkpt lat="45.20262" lon="0.611">
        <ele>114</ele>
        <time>2011-12-26T13:47:48Z</time>
      </trkpt>
      <trkpt lat="45.20081" lon="0.61122">
        <ele>115</ele>
        <time>2011-12-26T13:48:07Z</time>
      </trkpt>
      <trkpt lat="45.19924" lon="0.61138">
        <ele>118</ele>
        <time>2011-12-26T13:48:26Z</time>
      </trkpt>
      <trkpt lat="45.19848" lon="0.61145">
        <ele>119</ele>
        <time>2011-12-26T13:48:38Z</time>
      </trkpt>
      <trkpt lat="45.19831" lon="0.61146">
        <ele>120</ele>
        <time>2011-12-26T13:48:41Z</time>
      </trkpt>
      <trkpt lat="45.19727" lon="0.61175">
        <ele>127</ele>
        <time>2011-12-26T13:49:01Z</time>
      </trkpt>
      <trkpt lat="45.19683" lon="0.61199">
        <ele>131</ele>
        <time>2011-12-26T13:49:13Z</time>
      </trkpt>
      <trkpt lat="45.19668" lon="0.61208">
        <ele>131</ele>
        <time>2011-12-26T13:49:17Z</time>
      </trkpt>
      <trkpt lat="45.19627" lon="0.61241">
        <ele>138</ele>
        <time>2011-12-26T13:49:28Z</time>
      </trkpt>
      <trkpt lat="45.19576" lon="0.61303">
        <ele>142</ele>
        <time>2011-12-26T13:49:45Z</time>
      </trkpt>
      <trkpt lat="45.19541" lon="0.61367">
        <ele>140</ele>
        <time>2011-12-26T13:50:00Z</time>
      </trkpt>
      <trkpt lat="45.19517" lon="0.61424">
        <ele>135</ele>
        <time>2011-12-26T13:50:11Z</time>
      </trkpt>
      <trkpt lat="45.19503" lon="0.61472">
        <ele>135</ele>
        <time>2011-12-26T13:50:18Z</time>
      </trkpt>
      <trkpt lat="45.195" lon="0.61484">
        <ele>133</ele>
        <time>2011-12-26T13:50:20Z</time>
      </trkpt>
      <trkpt lat="45.19494" lon="0.61503">
        <ele>130</ele>
        <time>2011-12-26T13:50:23Z</time>
      </trkpt>
      <trkpt lat="45.19488" lon="0.61541">
        <ele>129</ele>
        <time>2011-12-26T13:50:29Z</time>
      </trkpt>
      <trkpt lat="45.19474" lon="0.61673">
        <ele>128</ele>
        <time>2011-12-26T13:50:46Z</time>
      </trkpt>
      <trkpt lat="45.19459" lon="0.61857">
        <ele>122</ele>
        <time>2011-12-26T13:50:58Z</time>
      </trkpt>
      <trkpt lat="45.19435" lon="0.61947">
        <ele>115</ele>
        <time>2011-12-26T13:51:04Z</time>
      </trkpt>
      <trkpt lat="45.1944" lon="0.62056">
        <ele>105</ele>
        <time>2011-12-26T13:51:11Z</time>
      </trkpt>
      <trkpt lat="45.19486" lon="0.62109">
        <ele>99</ele>
        <time>2011-12-26T13:51:16Z</time>
      </trkpt>
      <trkpt lat="45.19548" lon="0.62137">
        <ele>99</ele>
        <time>2011-12-26T13:51:21Z</time>
      </trkpt>
      <trkpt lat="45.19618" lon="0.62222">
        <ele>94</ele>
        <time>2011-12-26T13:51:28Z</time>
      </trkpt>
      <trkpt lat="45.19628" lon="0.62258">
        <ele>93</ele>
        <time>2011-12-26T13:51:30Z</time>
      </trkpt>
      <trkpt lat="45.19694" lon="0.62493">
        <ele>104</ele>
        <time>2011-12-26T13:51:43Z</time>
      </trkpt>
      <trkpt lat="45.19741" lon="0.62708">
        <ele>85</ele>
        <time>2011-12-26T13:51:56Z</time>
      </trkpt>
      <trkpt lat="45.19764" lon="0.62845">
        <ele>81</ele>
        <time>2011-12-26T13:52:05Z</time>
      </trkpt>
      <trkpt lat="45.19733" lon="0.62954">
        <ele>84</ele>
        <time>2011-12-26T13:52:13Z</time>
      </trkpt>
      <trkpt lat="45.19682" lon="0.63123">
        <ele>97</ele>
        <time>2011-12-26T13:52:27Z</time>
      </trkpt>
      <trkpt lat="45.19665" lon="0.6329">
        <ele>86</ele>
        <time>2011-12-26T13:52:43Z</time>
      </trkpt>
      <trkpt lat="45.19649" lon="0.63471">
        <ele>88</ele>
        <time>2011-12-26T13:53:04Z</time>
      </trkpt>
      <trkpt lat="45.19622" lon="0.63607">
        <ele>87</ele>
        <time>2011-12-26T13:53:20Z</time>
      </trkpt>
      <trkpt lat="45.19578" lon="0.63784">
        <ele>83</ele>
        <time>2011-12-26T13:53:39Z</time>
      </trkpt>
      <trkpt lat="45.19552" lon="0.6393">
        <ele>86</ele>
        <time>2011-12-26T13:53:55Z</time>
      </trkpt>
      <trkpt lat="45.19551" lon="0.63939">
        <ele>86</ele>
        <time>2011-12-26T13:53:56Z</time>
      </trkpt>
      <trkpt lat="45.19529" lon="0.63954">
        <ele>85</ele>
        <time>2011-12-26T13:54:01Z</time>
      </trkpt>
      <trkpt lat="45.19434" lon="0.63914">
        <ele>79</ele>
        <time>2011-12-26T13:54:13Z</time>
      </trkpt>
      <trkpt lat="45.19396" lon="0.63936">
        <ele>78</ele>
        <time>2011-12-26T13:54:20Z</time>
      </trkpt>
      <trkpt lat="45.19335" lon="0.64041">
        <ele>78</ele>
        <time>2011-12-26T13:54:36Z</time>
      </trkpt>
      <trkpt lat="45.19256" lon="0.64153">
        <ele>80</ele>
        <time>2011-12-26T13:54:53Z</time>
      </trkpt>
      <trkpt lat="45.19243" lon="0.64177">
        <ele>80</ele>
        <time>2011-12-26T13:54:57Z</time>
      </trkpt>
      <trkpt lat="45.19223" lon="0.6418">
        <ele>80</ele>
        <time>2011-12-26T13:55:02Z</time>
      </trkpt>
      <trkpt lat="45.19202" lon="0.64185">
        <ele>80</ele>
        <time>2011-12-26T13:55:06Z</time>
      </trkpt>
      <trkpt lat="45.19192" lon="0.642">
        <ele>80</ele>
        <time>2011-12-26T13:55:10Z</time>
      </trkpt>
      <trkpt lat="45.1919" lon="0.64211">
        <ele>80</ele>
        <time>2011-12-26T13:55:12Z</time>
      </trkpt>
      <trkpt lat="45.19186" lon="0.6423">
        <ele>80</ele>
        <time>2011-12-26T13:55:15Z</time>
      </trkpt>
      <trkpt lat="45.19175" lon="0.64255">
        <ele>81</ele>
        <time>2011-12-26T13:55:19Z</time>
      </trkpt>
      <trkpt lat="45.19111" lon="0.64352">
        <ele>80</ele>
        <time>2011-12-26T13:55:35Z</time>
      </trkpt>
      <trkpt lat="45.19102" lon="0.64373">
        <ele>80</ele>
        <time>2011-12-26T13:55:38Z</time>
      </trkpt>
      <trkpt lat="45.19077" lon="0.64498">
        <ele>80</ele>
        <time>2011-12-26T13:55:53Z</time>
      </trkpt>
      <trkpt lat="45.19046" lon="0.6462">
        <ele>81</ele>
        <time>2011-12-26T13:56:07Z</time>
      </trkpt>
      <trkpt lat="45.19042" lon="0.64653">
        <ele>81</ele>
        <time>2011-12-26T13:56:11Z</time>
      </trkpt>
      <trkpt lat="45.19012" lon="0.64769">
        <ele>81</ele>
        <time>2011-12-26T13:56:25Z</time>
      </trkpt>
      <trkpt lat="45.19001" lon="0.64929">
        <ele>79</ele>
        <time>2011-12-26T13:56:43Z</time>
      </trkpt>
      <trkpt lat="45.19001" lon="0.65103">
        <ele>79</ele>
        <time>2011-12-26T13:57:02Z</time>
      </trkpt>
      <trkpt lat="45.19018" lon="0.65219">
        <ele>80</ele>
        <time>2011-12-26T13:57:16Z</time>
      </trkpt>
      <trkpt lat="45.19019" lon="0.65366">
        <ele>82</ele>
        <time>2011-12-26T13:57:32Z</time>
      </trkpt>
      <trkpt lat="45.19001" lon="0.65463">
        <ele>81</ele>
        <time>2011-12-26T13:57:43Z</time>
      </trkpt>
      <trkpt lat="45.19024" lon="0.6562">
        <ele>78</ele>
        <time>2011-12-26T13:58:00Z</time>
      </trkpt>
      <trkpt lat="45.19072" lon="0.65786">
        <ele>81</ele>
        <time>2011-12-26T13:58:20Z</time>
      </trkpt>
      <trkpt lat="45.19083" lon="0.65928">
        <ele>82</ele>
        <time>2011-12-26T13:58:36Z</time>
      </trkpt>
      <trkpt lat="45.19086" lon="0.65979">
        <ele>82</ele>
        <time>2011-12-26T13:58:43Z</time>
      </trkpt>
      <trkpt lat="45.19093" lon="0.66041">
        <ele>82</ele>
        <time>2011-12-26T13:58:56Z</time>
      </trkpt>
      <trkpt lat="45.19095" lon="0.66127">
        <ele>82</ele>
        <time>2011-12-26T13:59:12Z</time>
      </trkpt>
      <trkpt lat="45.1909" lon="0.66147">
        <ele>82</ele>
        <time>2011-12-26T13:59:16Z</time>
      </trkpt>
      <trkpt lat="45.19103" lon="0.66178">
        <ele>82</ele>
        <time>2011-12-26T13:59:23Z</time>
      </trkpt>
      <trkpt lat="45.19113" lon="0.66184">
        <ele>82</ele>
        <time>2011-12-26T13:59:26Z</time>
      </trkpt>
      <trkpt lat="45.19111" lon="0.6619">
        <ele>82</ele>
        <time>2011-12-26T13:59:30Z</time>
      </trkpt>
      <trkpt lat="45.19106" lon="0.66188">
        <ele>82</ele>
        <time>2011-12-26T13:59:33Z</time>
      </trkpt>
      <trkpt lat="45.19082" lon="0.66178">
        <ele>82</ele>
        <time>2011-12-26T13:59:42Z</time>
      </trkpt>
      <trkpt lat="45.19066" lon="0.66185">
        <ele>82</ele>
        <time>2011-12-26T13:59:46Z</time>
      </trkpt>
      <trkpt lat="45.19052" lon="0.66193">
        <ele>82</ele>
        <time>2011-12-26T13:59:49Z</time>
      </trkpt>
      <trkpt lat="45.19022" lon="0.66204">
        <ele>81</ele>
        <time>2011-12-26T13:59:54Z</time>
      </trkpt>
      <trkpt lat="45.18997" lon="0.66203">
        <ele>80</ele>
        <time>2011-12-26T13:59:58Z</time>
      </trkpt>
      <trkpt lat="45.18987" lon="0.66201">
        <ele>80</ele>
        <time>2011-12-26T14:00:00Z</time>
      </trkpt>
      <trkpt lat="45.18964" lon="0.662">
        <ele>80</ele>
        <time>2011-12-26T14:00:04Z</time>
      </trkpt>
      <trkpt lat="45.18918" lon="0.66182">
        <ele>79</ele>
        <time>2011-12-26T14:00:12Z</time>
      </trkpt>
      <trkpt lat="45.18901" lon="0.66197">
        <ele>80</ele>
        <time>2011-12-26T14:00:17Z</time>
      </trkpt>
      <trkpt lat="45.18886" lon="0.66237">
        <ele>81</ele>
        <time>2011-12-26T14:00:23Z</time>
      </trkpt>
      <trkpt lat="45.18871" lon="0.6626">
        <ele>80</ele>
        <time>2011-12-26T14:00:27Z</time>
      </trkpt>
      <trkpt lat="45.18845" lon="0.66372">
        <ele>79</ele>
        <time>2011-12-26T14:00:41Z</time>
      </trkpt>
      <trkpt lat="45.18842" lon="0.6638">
        <ele>79</ele>
        <time>2011-12-26T14:00:42Z</time>
      </trkpt>
      <trkpt lat="45.18826" lon="0.66401">
        <ele>79</ele>
        <time>2011-12-26T14:00:46Z</time>
      </trkpt>
      <trkpt lat="45.18815" lon="0.66447">
        <ele>79</ele>
        <time>2011-12-26T14:00:52Z</time>
      </trkpt>
      <trkpt lat="45.18824" lon="0.6658">
        <ele>78</ele>
        <time>2011-12-26T14:01:07Z</time>
      </trkpt>
      <trkpt lat="45.18829" lon="0.66658">
        <ele>78</ele>
        <time>2011-12-26T14:01:16Z</time>
      </trkpt>
      <trkpt lat="45.18843" lon="0.6677">
        <ele>78</ele>
        <time>2011-12-26T14:01:31Z</time>
      </trkpt>
      <trkpt lat="45.1885" lon="0.66846">
        <ele>79</ele>
        <time>2011-12-26T14:01:41Z</time>
      </trkpt>
      <trkpt lat="45.18851" lon="0.66897">
        <ele>78</ele>
        <time>2011-12-26T14:01:47Z</time>
      </trkpt>
      <trkpt lat="45.18859" lon="0.66957">
        <ele>79</ele>
        <time>2011-12-26T14:01:55Z</time>
      </trkpt>
      <trkpt lat="45.18862" lon="0.67002">
        <ele>79</ele>
        <time>2011-12-26T14:02:00Z</time>
      </trkpt>
      <trkpt lat="45.18865" lon="0.67071">
        <ele>79</ele>
        <time>2011-12-26T14:02:09Z</time>
      </trkpt>
      <trkpt lat="45.18883" lon="0.67166">
        <ele>80</ele>
        <time>2011-12-26T14:02:21Z</time>
      </trkpt>
      <trkpt lat="45.18901" lon="0.67229">
        <ele>82</ele>
        <time>2011-12-26T14:02:30Z</time>
      </trkpt>
      <trkpt lat="45.18918" lon="0.67281">
        <ele>83</ele>
        <time>2011-12-26T14:02:38Z</time>
      </trkpt>
      <trkpt lat="45.18923" lon="0.673">
        <ele>83</ele>
        <time>2011-12-26T14:02:41Z</time>
      </trkpt>
      <trkpt lat="45.18935" lon="0.67329">
        <ele>83</ele>
        <time>2011-12-26T14:02:46Z</time>
      </trkpt>
      <trkpt lat="45.18942" lon="0.67356">
        <ele>83</ele>
        <time>2011-12-26T14:02:50Z</time>
      </trkpt>
      <trkpt lat="45.18958" lon="0.67393">
        <ele>83</ele>
        <time>2011-12-26T14:02:56Z</time>
      </trkpt>
      <trkpt lat="45.18994" lon="0.67486">
        <ele>84</ele>
        <time>2011-12-26T14:03:10Z</time>
      </trkpt>
      <trkpt lat="45.18998" lon="0.67499">
        <ele>83</ele>
        <time>2011-12-26T14:03:12Z</time>
      </trkpt>
      <trkpt lat="45.19002" lon="0.67516">
        <ele>83</ele>
        <time>2011-12-26T14:03:15Z</time>
      </trkpt>
      <trkpt lat="45.19017" lon="0.67529">
        <ele>83</ele>
        <time>2011-12-26T14:03:20Z</time>
      </trkpt>
      <trkpt lat="45.19053" lon="0.67541">
        <ele>83</ele>
        <time>2011-12-26T14:03:27Z</time>
      </trkpt>
      <trkpt lat="45.19112" lon="0.67546">
        <ele>82</ele>
        <time>2011-12-26T14:03:38Z</time>
      </trkpt>
      <trkpt lat="45.19187" lon="0.67555">
        <ele>81</ele>
        <time>2011-12-26T14:03:53Z</time>
      </trkpt>
      <trkpt lat="45.19196" lon="0.67555">
        <ele>81</ele>
        <time>2011-12-26T14:03:55Z</time>
      </trkpt>
      <trkpt lat="45.1924" lon="0.67552">
        <ele>80</ele>
        <time>2011-12-26T14:04:05Z</time>
      </trkpt>
      <trkpt lat="45.19252" lon="0.67571">
        <ele>81</ele>
        <time>2011-12-26T14:04:11Z</time>
      </trkpt>
      <trkpt lat="45.19257" lon="0.67615">
        <ele>81</ele>
        <time>2011-12-26T14:04:17Z</time>
      </trkpt>
      <trkpt lat="45.1926" lon="0.67636">
        <ele>81</ele>
        <time>2011-12-26T14:04:20Z</time>
      </trkpt>
      <trkpt lat="45.19256" lon="0.67662">
        <ele>81</ele>
        <time>2011-12-26T14:04:24Z</time>
      </trkpt>
      <trkpt lat="45.19258" lon="0.67809">
        <ele>79</ele>
        <time>2011-12-26T14:04:42Z</time>
      </trkpt>
      <trkpt lat="45.19258" lon="0.67824">
        <ele>79</ele>
        <time>2011-12-26T14:04:44Z</time>
      </trkpt>
      <trkpt lat="45.19266" lon="0.67856">
        <ele>79</ele>
        <time>2011-12-26T14:04:49Z</time>
      </trkpt>
      <trkpt lat="45.19326" lon="0.67956">
        <ele>79</ele>
        <time>2011-12-26T14:05:08Z</time>
      </trkpt>
      <trkpt lat="45.19338" lon="0.67979">
        <ele>79</ele>
        <time>2011-12-26T14:05:12Z</time>
      </trkpt>
      <trkpt lat="45.19363" lon="0.68004">
        <ele>79</ele>
        <time>2011-12-26T14:05:18Z</time>
      </trkpt>
      <trkpt lat="45.1938" lon="0.68025">
        <ele>79</ele>
        <time>2011-12-26T14:05:22Z</time>
      </trkpt>
      <trkpt lat="45.19475" lon="0.68121">
        <ele>79</ele>
        <time>2011-12-26T14:05:42Z</time>
      </trkpt>
      <trkpt lat="45.19557" lon="0.68198">
        <ele>80</ele>
        <time>2011-12-26T14:05:59Z</time>
      </trkpt>
      <trkpt lat="45.19592" lon="0.68227">
        <ele>81</ele>
        <time>2011-12-26T14:06:06Z</time>
      </trkpt>
      <trkpt lat="45.19604" lon="0.68244">
        <ele>82</ele>
        <time>2011-12-26T14:06:09Z</time>
      </trkpt>
      <trkpt lat="45.19707" lon="0.68352">
        <ele>80</ele>
        <time>2011-12-26T14:06:30Z</time>
      </trkpt>
      <trkpt lat="45.19819" lon="0.68452">
        <ele>81</ele>
        <time>2011-12-26T14:06:51Z</time>
      </trkpt>
      <trkpt lat="45.19834" lon="0.68464">
        <ele>82</ele>
        <time>2011-12-26T14:06:54Z</time>
      </trkpt>
      <trkpt lat="45.19843" lon="0.68473">
        <ele>82</ele>
        <time>2011-12-26T14:06:56Z</time>
      </trkpt>
      <trkpt lat="45.19896" lon="0.68515">
        <ele>81</ele>
        <time>2011-12-26T14:07:07Z</time>
      </trkpt>
      <trkpt lat="45.19922" lon="0.68518">
        <ele>82</ele>
        <time>2011-12-26T14:07:14Z</time>
      </trkpt>
      <trkpt lat="45.19929" lon="0.68504">
        <ele>82</ele>
        <time>2011-12-26T14:07:17Z</time>
      </trkpt>
      <trkpt lat="45.19942" lon="0.68474">
        <ele>85</ele>
        <time>2011-12-26T14:07:23Z</time>
      </trkpt>
      <trkpt lat="45.19965" lon="0.68487">
        <ele>85</ele>
        <time>2011-12-26T14:07:31Z</time>
      </trkpt>
      <trkpt lat="45.19979" lon="0.68489">
        <ele>86</ele>
        <time>2011-12-26T14:07:35Z</time>
      </trkpt>
      <trkpt lat="45.20004" lon="0.6848">
        <ele>89</ele>
        <time>2011-12-26T14:07:41Z</time>
      </trkpt>
      <trkpt lat="45.2003" lon="0.68472">
        <ele>91</ele>
        <time>2011-12-26T14:07:47Z</time>
      </trkpt>
      <trkpt lat="45.20042" lon="0.68466">
        <ele>91</ele>
        <time>2011-12-26T14:07:50Z</time>
      </trkpt>
      <trkpt lat="45.2006" lon="0.68461">
        <ele>92</ele>
        <time>2011-12-26T14:07:55Z</time>
      </trkpt>
      <trkpt lat="45.20072" lon="0.68476">
        <ele>92</ele>
        <time>2011-12-26T14:08:00Z</time>
      </trkpt>
      <trkpt lat="45.20087" lon="0.68516">
        <ele>94</ele>
        <time>2011-12-26T14:08:07Z</time>
      </trkpt>
      <trkpt lat="45.20135" lon="0.68636">
        <ele>94</ele>
        <time>2011-12-26T14:08:23Z</time>
      </trkpt>
      <trkpt lat="45.20184" lon="0.68821">
        <ele>103</ele>
        <time>2011-12-26T14:08:45Z</time>
      </trkpt>
      <trkpt lat="45.2019" lon="0.6896">
        <ele>102</ele>
        <time>2011-12-26T14:09:01Z</time>
      </trkpt>
      <trkpt lat="45.20172" lon="0.69128">
        <ele>99</ele>
        <time>2011-12-26T14:09:21Z</time>
      </trkpt>
      <trkpt lat="45.20164" lon="0.69192">
        <ele>87</ele>
        <time>2011-12-26T14:09:32Z</time>
      </trkpt>
      <trkpt lat="45.20133" lon="0.6923">
        <ele>87</ele>
        <time>2011-12-26T14:09:44Z</time>
      </trkpt>
      <trkpt lat="45.20082" lon="0.69269">
        <ele>83</ele>
        <time>2011-12-26T14:09:57Z</time>
      </trkpt>
      <trkpt lat="45.20011" lon="0.69352">
        <ele>82</ele>
        <time>2011-12-26T14:10:17Z</time>
      </trkpt>
      <trkpt lat="45.19979" lon="0.69406">
        <ele>83</ele>
        <time>2011-12-26T14:10:29Z</time>
      </trkpt>
      <trkpt lat="45.19952" lon="0.69432">
        <ele>83</ele>
        <time>2011-12-26T14:10:37Z</time>
      </trkpt>
      <trkpt lat="45.1993" lon="0.69461">
        <ele>83</ele>
        <time>2011-12-26T14:10:44Z</time>
      </trkpt>
      <trkpt lat="45.19921" lon="0.69473">
        <ele>83</ele>
        <time>2011-12-26T14:10:47Z</time>
      </trkpt>
      <trkpt lat="45.19891" lon="0.69489">
        <ele>82</ele>
        <time>2011-12-26T14:10:55Z</time>
      </trkpt>
      <trkpt lat="45.19873" lon="0.69503">
        <ele>82</ele>
        <time>2011-12-26T14:11:00Z</time>
      </trkpt>
      <trkpt lat="45.19846" lon="0.69534">
        <ele>82</ele>
        <time>2011-12-26T14:11:08Z</time>
      </trkpt>
      <trkpt lat="45.19834" lon="0.69544">
        <ele>82</ele>
        <time>2011-12-26T14:11:11Z</time>
      </trkpt>
      <trkpt lat="45.19777" lon="0.69574">
        <ele>82</ele>
        <time>2011-12-26T14:11:27Z</time>
      </trkpt>
      <trkpt lat="45.19758" lon="0.69583">
        <ele>82</ele>
        <time>2011-12-26T14:12:08Z</time>
      </trkpt>
      <trkpt lat="45.1968" lon="0.69621">
        <ele>81</ele>
        <time>2011-12-26T14:12:27Z</time>
      </trkpt>
      <trkpt lat="45.19606" lon="0.69664">
        <ele>82</ele>
        <time>2011-12-26T14:12:45Z</time>
      </trkpt>
      <trkpt lat="45.19529" lon="0.69695">
        <ele>83</ele>
        <time>2011-12-26T14:13:00Z</time>
      </trkpt>
      <trkpt lat="45.194" lon="0.69759">
        <ele>82</ele>
        <time>2011-12-26T14:13:25Z</time>
      </trkpt>
      <trkpt lat="45.19305" lon="0.69799">
        <ele>84</ele>
        <time>2011-12-26T14:13:44Z</time>
      </trkpt>
      <trkpt lat="45.19295" lon="0.69807">
        <ele>84</ele>
        <time>2011-12-26T14:13:47Z</time>
      </trkpt>
      <trkpt lat="45.19275" lon="0.69809">
        <ele>84</ele>
        <time>2011-12-26T14:13:52Z</time>
      </trkpt>
      <trkpt lat="45.19261" lon="0.69817">
        <ele>84</ele>
        <time>2011-12-26T14:13:56Z</time>
      </trkpt>
      <trkpt lat="45.19252" lon="0.69815">
        <ele>84</ele>
        <time>2011-12-26T14:13:58Z</time>
      </trkpt>
      <trkpt lat="45.19225" lon="0.69827">
        <ele>87</ele>
        <time>2011-12-26T14:14:03Z</time>
      </trkpt>
      <trkpt lat="45.19119" lon="0.69868">
        <ele>86</ele>
        <time>2011-12-26T14:14:21Z</time>
      </trkpt>
      <trkpt lat="45.18983" lon="0.69917">
        <ele>81</ele>
        <time>2011-12-26T14:14:44Z</time>
      </trkpt>
      <trkpt lat="45.1887" lon="0.69961">
        <ele>83</ele>
        <time>2011-12-26T14:15:03Z</time>
      </trkpt>
      <trkpt lat="45.18728" lon="0.69994">
        <ele>85</ele>
        <time>2011-12-26T14:15:27Z</time>
      </trkpt>
      <trkpt lat="45.18709" lon="0.69999">
        <ele>85</ele>
        <time>2011-12-26T14:15:31Z</time>
      </trkpt>
      <trkpt lat="45.18693" lon="0.70002">
        <ele>82</ele>
        <time>2011-12-26T14:15:34Z</time>
      </trkpt>
      <trkpt lat="45.1859" lon="0.70052">
        <ele>84</ele>
        <time>2011-12-26T14:15:52Z</time>
      </trkpt>
      <trkpt lat="45.18555" lon="0.70086">
        <ele>85</ele>
        <time>2011-12-26T14:15:59Z</time>
      </trkpt>
      <trkpt lat="45.18524" lon="0.70141">
        <ele>85</ele>
        <time>2011-12-26T14:16:07Z</time>
      </trkpt>
      <trkpt lat="45.18478" lon="0.70241">
        <ele>85</ele>
        <time>2011-12-26T14:16:21Z</time>
      </trkpt>
      <trkpt lat="45.18405" lon="0.70345">
        <ele>86</ele>
        <time>2011-12-26T14:16:38Z</time>
      </trkpt>
      <trkpt lat="45.18388" lon="0.70365">
        <ele>86</ele>
        <time>2011-12-26T14:16:42Z</time>
      </trkpt>
      <trkpt lat="45.18372" lon="0.70374">
        <ele>86</ele>
        <time>2011-12-26T14:16:46Z</time>
      </trkpt>
      <trkpt lat="45.18358" lon="0.70381">
        <ele>86</ele>
        <time>2011-12-26T14:16:50Z</time>
      </trkpt>
      <trkpt lat="45.1834" lon="0.704">
        <ele>86</ele>
        <time>2011-12-26T14:16:55Z</time>
      </trkpt>
      <trkpt lat="45.1833" lon="0.70407">
        <ele>86</ele>
        <time>2011-12-26T14:16:57Z</time>
      </trkpt>
      <trkpt lat="45.1827" lon="0.70458">
        <ele>87</ele>
        <time>2011-12-26T14:17:12Z</time>
      </trkpt>
      <trkpt lat="45.18255" lon="0.70473">
        <ele>86</ele>
        <time>2011-12-26T14:17:16Z</time>
      </trkpt>
      <trkpt lat="45.18192" lon="0.70527">
        <ele>85</ele>
        <time>2011-12-26T14:17:29Z</time>
      </trkpt>
      <trkpt lat="45.18086" lon="0.70616">
        <ele>86</ele>
        <time>2011-12-26T14:17:48Z</time>
      </trkpt>
      <trkpt lat="45.18067" lon="0.70639">
        <ele>85</ele>
        <time>2011-12-26T14:17:52Z</time>
      </trkpt>
      <trkpt lat="45.18042" lon="0.70659">
        <ele>85</ele>
        <time>2011-12-26T14:18:00Z</time>
      </trkpt>
      <trkpt lat="45.17948" lon="0.70728">
        <ele>85</ele>
        <time>2011-12-26T14:18:16Z</time>
      </trkpt>
      <trkpt lat="45.17906" lon="0.70766">
        <ele>86</ele>
        <time>2011-12-26T14:18:24Z</time>
      </trkpt>
      <trkpt lat="45.17832" lon="0.70828">
        <ele>87</ele>
        <time>2011-12-26T14:18:39Z</time>
      </trkpt>
      <trkpt lat="45.17754" lon="0.70892">
        <ele>86</ele>
        <time>2011-12-26T14:18:54Z</time>
      </trkpt>
      <trkpt lat="45.17741" lon="0.70907">
        <ele>86</ele>
        <time>2011-12-26T14:18:57Z</time>
      </trkpt>
      <trkpt lat="45.1771" lon="0.70942">
        <ele>85</ele>
        <time>2011-12-26T14:19:04Z</time>
      </trkpt>
      <trkpt lat="45.17698" lon="0.70961">
        <ele>85</ele>
        <time>2011-12-26T14:19:07Z</time>
      </trkpt>
      <trkpt lat="45.17683" lon="0.70984">
        <ele>85</ele>
        <time>2011-12-26T14:19:11Z</time>
      </trkpt>
      <trkpt lat="45.17629" lon="0.7112">
        <ele>87</ele>
        <time>2011-12-26T14:19:29Z</time>
      </trkpt>
      <trkpt lat="45.17587" lon="0.7128">
        <ele>88</ele>
        <time>2011-12-26T14:19:46Z</time>
      </trkpt>
      <trkpt lat="45.17571" lon="0.71335">
        <ele>89</ele>
        <time>2011-12-26T14:19:53Z</time>
      </trkpt>
      <trkpt lat="45.1755" lon="0.71421">
        <ele>87</ele>
        <time>2011-12-26T14:20:06Z</time>
      </trkpt>
      <trkpt lat="45.17549" lon="0.71434">
        <ele>87</ele>
        <time>2011-12-26T14:20:08Z</time>
      </trkpt>
      <trkpt lat="45.17535" lon="0.71495">
        <ele>87</ele>
        <time>2011-12-26T14:20:19Z</time>
      </trkpt>
      <trkpt lat="45.17524" lon="0.71524">
        <ele>87</ele>
        <time>2011-12-26T14:20:23Z</time>
      </trkpt>
      <trkpt lat="45.17519" lon="0.71567">
        <ele>86</ele>
        <time>2011-12-26T14:20:28Z</time>
      </trkpt>
      <trkpt lat="45.17514" lon="0.71599">
        <ele>86</ele>
        <time>2011-12-26T14:20:32Z</time>
      </trkpt>
      <trkpt lat="45.1753" lon="0.7178">
        <ele>87</ele>
        <time>2011-12-26T14:20:54Z</time>
      </trkpt>
      <trkpt lat="45.17547" lon="0.71922">
        <ele>87</ele>
        <time>2011-12-26T14:21:12Z</time>
      </trkpt>
      <trkpt lat="45.17556" lon="0.71954">
        <ele>87</ele>
        <time>2011-12-26T14:21:16Z</time>
      </trkpt>
      <trkpt lat="45.17589" lon="0.72005">
        <ele>87</ele>
        <time>2011-12-26T14:21:24Z</time>
      </trkpt>
      <trkpt lat="45.17637" lon="0.72037">
        <ele>87</ele>
        <time>2011-12-26T14:21:34Z</time>
      </trkpt>
      <trkpt lat="45.17648" lon="0.72047">
        <ele>86</ele>
        <time>2011-12-26T14:21:37Z</time>
      </trkpt>
      <trkpt lat="45.17678" lon="0.7206">
        <ele>87</ele>
        <time>2011-12-26T14:21:44Z</time>
      </trkpt>
      <trkpt lat="45.17681" lon="0.72091">
        <ele>86</ele>
        <time>2011-12-26T14:21:49Z</time>
      </trkpt>
      <trkpt lat="45.17691" lon="0.72108">
        <ele>87</ele>
        <time>2011-12-26T14:21:53Z</time>
      </trkpt>
      <trkpt lat="45.17728" lon="0.72139">
        <ele>87</ele>
        <time>2011-12-26T14:22:02Z</time>
      </trkpt>
      <trkpt lat="45.17749" lon="0.72159">
        <ele>86</ele>
        <time>2011-12-26T14:22:06Z</time>
      </trkpt>
      <trkpt lat="45.17817" lon="0.72181">
        <ele>86</ele>
        <time>2011-12-26T14:22:18Z</time>
      </trkpt>
      <trkpt lat="45.17836" lon="0.7219">
        <ele>87</ele>
        <time>2011-12-26T14:22:25Z</time>
      </trkpt>
      <trkpt lat="45.17862" lon="0.72203">
        <ele>87</ele>
        <time>2011-12-26T14:22:34Z</time>
      </trkpt>
      <trkpt lat="45.17862" lon="0.72217">
        <ele>87</ele>
        <time>2011-12-26T14:22:38Z</time>
      </trkpt>
      <trkpt lat="45.17854" lon="0.72289">
        <ele>88</ele>
        <time>2011-12-26T14:22:53Z</time>
      </trkpt>
      <trkpt lat="45.17852" lon="0.72314">
        <ele>88</ele>
        <time>2011-12-26T14:22:59Z</time>
      </trkpt>
      <trkpt lat="45.17849" lon="0.72311">
        <ele>88</ele>
        <time>2011-12-26T14:23:04Z</time>
      </trkpt>
      <trkpt lat="45.17851" lon="0.72277">
        <ele>88</ele>
        <time>2011-12-26T14:23:11Z</time>
      </trkpt>
      <trkpt lat="45.17866" lon="0.72274">
        <ele>88</ele>
        <time>2011-12-26T14:23:16Z</time>
      </trkpt>
      <trkpt lat="45.17897" lon="0.72283">
        <ele>88</ele>
        <time>2011-12-26T14:23:22Z</time>
      </trkpt>
      <trkpt lat="45.17982" lon="0.72321">
        <ele>88</ele>
        <time>2011-12-26T14:23:39Z</time>
      </trkpt>
      <trkpt lat="45.18019" lon="0.72346">
        <ele>88</ele>
        <time>2011-12-26T14:23:47Z</time>
      </trkpt>
      <trkpt lat="45.18034" lon="0.72367">
        <ele>88</ele>
        <time>2011-12-26T14:23:52Z</time>
      </trkpt>
      <trkpt lat="45.18047" lon="0.72381">
        <ele>88</ele>
        <time>2011-12-26T14:23:55Z</time>
      </trkpt>
      <trkpt lat="45.18057" lon="0.72389">
        <ele>88</ele>
        <time>2011-12-26T14:23:57Z</time>
      </trkpt>
      <trkpt lat="45.18075" lon="0.72401">
        <ele>88</ele>
        <time>2011-12-26T14:24:02Z</time>
      </trkpt>
      <trkpt lat="45.18087" lon="0.7241">
        <ele>88</ele>
        <time>2011-12-26T14:24:05Z</time>
      </trkpt>
      <trkpt lat="45.1816" lon="0.72439">
        <ele>89</ele>
        <time>2011-12-26T14:24:18Z</time>
      </trkpt>
      <trkpt lat="45.1818" lon="0.72455">
        <ele>89</ele>
        <time>2011-12-26T14:24:22Z</time>
      </trkpt>
      <trkpt lat="45.18201" lon="0.72466">
        <ele>89</ele>
        <time>2011-12-26T14:24:26Z</time>
      </trkpt>
      <trkpt lat="45.18218" lon="0.72466">
        <ele>89</ele>
        <time>2011-12-26T14:24:29Z</time>
      </trkpt>
      <trkpt lat="45.18247" lon="0.72475">
        <ele>89</ele>
        <time>2011-12-26T14:24:34Z</time>
      </trkpt>
      <trkpt lat="45.1832" lon="0.72505">
        <ele>89</ele>
        <time>2011-12-26T14:24:47Z</time>
      </trkpt>
      <trkpt lat="45.18334" lon="0.72502">
        <ele>89</ele>
        <time>2011-12-26T14:24:51Z</time>
      </trkpt>
      <trkpt lat="45.1835" lon="0.72516">
        <ele>90</ele>
        <time>2011-12-26T14:24:56Z</time>
      </trkpt>
      <trkpt lat="45.18368" lon="0.7253">
        <ele>90</ele>
        <time>2011-12-26T14:25:00Z</time>
      </trkpt>
      <trkpt lat="45.18388" lon="0.72555">
        <ele>90</ele>
        <time>2011-12-26T14:25:05Z</time>
      </trkpt>
      <trkpt lat="45.18472" lon="0.72625">
        <ele>91</ele>
        <time>2011-12-26T14:25:23Z</time>
      </trkpt>
      <trkpt lat="45.18501" lon="0.7265">
        <ele>92</ele>
        <time>2011-12-26T14:25:33Z</time>
      </trkpt>
      <trkpt lat="45.18512" lon="0.7266">
        <ele>92</ele>
        <time>2011-12-26T14:25:36Z</time>
      </trkpt>
      <trkpt lat="45.18531" lon="0.72688">
        <ele>90</ele>
        <time>2011-12-26T14:25:43Z</time>
      </trkpt>
      <trkpt lat="45.18532" lon="0.72695">
        <ele>90</ele>
        <time>2011-12-26T14:25:45Z</time>
      </trkpt>
      <trkpt lat="45.18569" lon="0.7275">
        <ele>89</ele>
        <time>2011-12-26T14:25:57Z</time>
      </trkpt>
      <trkpt lat="45.18662" lon="0.72881">
        <ele>89</ele>
        <time>2011-12-26T14:26:19Z</time>
      </trkpt>
      <trkpt lat="45.18761" lon="0.73045">
        <ele>90</ele>
        <time>2011-12-26T14:26:42Z</time>
      </trkpt>
      <trkpt lat="45.18797" lon="0.73115">
        <ele>89</ele>
        <time>2011-12-26T14:26:52Z</time>
      </trkpt>
      <trkpt lat="45.1882" lon="0.73252">
        <ele>88</ele>
        <time>2011-12-26T14:27:08Z</time>
      </trkpt>
      <trkpt lat="45.18826" lon="0.73412">
        <ele>88</ele>
        <time>2011-12-26T14:27:26Z</time>
      </trkpt>
      <trkpt lat="45.18808" lon="0.7356">
        <ele>88</ele>
        <time>2011-12-26T14:27:43Z</time>
      </trkpt>
      <trkpt lat="45.18805" lon="0.73582">
        <ele>88</ele>
        <time>2011-12-26T14:27:46Z</time>
      </trkpt>
      <trkpt lat="45.18806" lon="0.73595">
        <ele>88</ele>
        <time>2011-12-26T14:27:48Z</time>
      </trkpt>
      <trkpt lat="45.18803" lon="0.73619">
        <ele>88</ele>
        <time>2011-12-26T14:27:53Z</time>
      </trkpt>
      <trkpt lat="45.18812" lon="0.73628">
        <ele>87</ele>
        <time>2011-12-26T14:27:57Z</time>
      </trkpt>
      <trkpt lat="45.18842" lon="0.73644">
        <ele>86</ele>
        <time>2011-12-26T14:28:10Z</time>
      </trkpt>
      <trkpt lat="45.1884" lon="0.73663">
        <ele>86</ele>
        <time>2011-12-26T14:28:15Z</time>
      </trkpt>
      <trkpt lat="45.18821" lon="0.73726">
        <ele>87</ele>
        <time>2011-12-26T14:28:27Z</time>
      </trkpt>
      <trkpt lat="45.18814" lon="0.73745">
        <ele>87</ele>
        <time>2011-12-26T14:28:30Z</time>
      </trkpt>
      <trkpt lat="45.18806" lon="0.7378">
        <ele>88</ele>
        <time>2011-12-26T14:28:35Z</time>
      </trkpt>
      <trkpt lat="45.18798" lon="0.73816">
        <ele>88</ele>
        <time>2011-12-26T14:28:40Z</time>
      </trkpt>
      <trkpt lat="45.188" lon="0.73844">
        <ele>88</ele>
        <time>2011-12-26T14:28:44Z</time>
      </trkpt>
      <trkpt lat="45.18805" lon="0.73863">
        <ele>88</ele>
        <time>2011-12-26T14:28:47Z</time>
      </trkpt>
      <trkpt lat="45.18808" lon="0.73889">
        <ele>88</ele>
        <time>2011-12-26T14:28:51Z</time>
      </trkpt>
      <trkpt lat="45.18813" lon="0.73918">
        <ele>88</ele>
        <time>2011-12-26T14:28:56Z</time>
      </trkpt>
      <trkpt lat="45.18816" lon="0.73931">
        <ele>88</ele>
        <time>2011-12-26T14:28:58Z</time>
      </trkpt>
      <trkpt lat="45.18829" lon="0.73954">
        <ele>88</ele>
        <time>2011-12-26T14:29:02Z</time>
      </trkpt>
      <trkpt lat="45.18842" lon="0.73968">
        <ele>88</ele>
        <time>2011-12-26T14:29:05Z</time>
      </trkpt>
      <trkpt lat="45.18883" lon="0.74036">
        <ele>89</ele>
        <time>2011-12-26T14:29:17Z</time>
      </trkpt>
      <trkpt lat="45.18882" lon="0.74061">
        <ele>89</ele>
        <time>2011-12-26T14:29:22Z</time>
      </trkpt>
      <trkpt lat="45.18876" lon="0.7408">
        <ele>89</ele>
        <time>2011-12-26T14:29:25Z</time>
      </trkpt>
      <trkpt lat="45.1887" lon="0.74114">
        <ele>89</ele>
        <time>2011-12-26T14:29:29Z</time>
      </trkpt>
      <trkpt lat="45.18859" lon="0.74168">
        <ele>89</ele>
        <time>2011-12-26T14:29:35Z</time>
      </trkpt>
      <trkpt lat="45.18855" lon="0.74195">
        <ele>89</ele>
        <time>2011-12-26T14:29:38Z</time>
      </trkpt>
      <trkpt lat="45.18815" lon="0.7429">
        <ele>89</ele>
        <time>2011-12-26T14:29:53Z</time>
      </trkpt>
      <trkpt lat="45.18782" lon="0.74379">
        <ele>88</ele>
        <time>2011-12-26T14:30:08Z</time>
      </trkpt>
      <trkpt lat="45.1877" lon="0.74452">
        <ele>88</ele>
        <time>2011-12-26T14:30:19Z</time>
      </trkpt>
      <trkpt lat="45.18755" lon="0.74463">
        <ele>88</ele>
        <time>2011-12-26T14:30:24Z</time>
      </trkpt>
      <trkpt lat="45.18725" lon="0.74533">
        <ele>90</ele>
        <time>2011-12-26T14:30:34Z</time>
      </trkpt>
      <trkpt lat="45.18667" lon="0.74647">
        <ele>90</ele>
        <time>2011-12-26T14:30:50Z</time>
      </trkpt>
      <trkpt lat="45.18637" lon="0.74701">
        <ele>90</ele>
        <time>2011-12-26T14:30:59Z</time>
      </trkpt>
      <trkpt lat="45.1863" lon="0.74715">
        <ele>90</ele>
        <time>2011-12-26T14:31:01Z</time>
      </trkpt>
      <trkpt lat="45.18614" lon="0.74735">
        <ele>90</ele>
        <time>2011-12-26T14:31:05Z</time>
      </trkpt>
      <trkpt lat="45.18586" lon="0.74763">
        <ele>90</ele>
        <time>2011-12-26T14:31:12Z</time>
      </trkpt>
      <trkpt lat="45.1856" lon="0.74786">
        <ele>89</ele>
        <time>2011-12-26T14:31:17Z</time>
      </trkpt>
      <trkpt lat="45.18471" lon="0.74842">
        <ele>90</ele>
        <time>2011-12-26T14:31:32Z</time>
      </trkpt>
      <trkpt lat="45.18427" lon="0.74868">
        <ele>91</ele>
        <time>2011-12-26T14:31:40Z</time>
      </trkpt>
      <trkpt lat="45.18367" lon="0.7494">
        <ele>92</ele>
        <time>2011-12-26T14:31:55Z</time>
      </trkpt>
      <trkpt lat="45.18341" lon="0.74972">
        <ele>91</ele>
        <time>2011-12-26T14:32:02Z</time>
      </trkpt>
      <trkpt lat="45.18316" lon="0.75011">
        <ele>92</ele>
        <time>2011-12-26T14:32:11Z</time>
      </trkpt>
      <trkpt lat="45.18305" lon="0.75034">
        <ele>93</ele>
        <time>2011-12-26T14:32:15Z</time>
      </trkpt>
      <trkpt lat="45.18299" lon="0.7505">
        <ele>93</ele>
        <time>2011-12-26T14:32:17Z</time>
      </trkpt>
      <trkpt lat="45.18291" lon="0.75071">
        <ele>93</ele>
        <time>2011-12-26T14:32:20Z</time>
      </trkpt>
      <trkpt lat="45.18283" lon="0.75089">
        <ele>91</ele>
        <time>2011-12-26T14:32:23Z</time>
      </trkpt>
      <trkpt lat="45.18261" lon="0.75155">
        <ele>90</ele>
        <time>2011-12-26T14:32:33Z</time>
      </trkpt>
      <trkpt lat="45.18246" lon="0.75243">
        <ele>92</ele>
        <time>2011-12-26T14:32:43Z</time>
      </trkpt>
      <trkpt lat="45.18242" lon="0.7533">
        <ele>90</ele>
        <time>2011-12-26T14:32:53Z</time>
      </trkpt>
      <trkpt lat="45.18252" lon="0.75377">
        <ele>87</ele>
        <time>2011-12-26T14:32:59Z</time>
      </trkpt>
      <trkpt lat="45.18293" lon="0.75469">
        <ele>87</ele>
        <time>2011-12-26T14:33:11Z</time>
      </trkpt>
      <trkpt lat="45.18313" lon="0.75504">
        <ele>88</ele>
        <time>2011-12-26T14:33:18Z</time>
      </trkpt>
      <trkpt lat="45.18322" lon="0.7552">
        <ele>88</ele>
        <time>2011-12-26T14:33:21Z</time>
      </trkpt>
      <trkpt lat="45.18349" lon="0.75557">
        <ele>87</ele>
        <time>2011-12-26T14:33:30Z</time>
      </trkpt>
      <trkpt lat="45.18356" lon="0.75555">
        <ele>87</ele>
        <time>2011-12-26T14:33:41Z</time>
      </trkpt>
      <trkpt lat="45.18357" lon="0.75556">
        <ele>87</ele>
        <time>2011-12-26T14:33:50Z</time>
      </trkpt>
      <trkpt lat="45.18357" lon="0.75568">
        <ele>87</ele>
        <time>2011-12-26T14:33:56Z</time>
      </trkpt>
      <trkpt lat="45.18388" lon="0.75613">
        <ele>87</ele>
        <time>2011-12-26T14:34:09Z</time>
      </trkpt>
      <trkpt lat="45.18419" lon="0.75652">
        <ele>86</ele>
        <time>2011-12-26T14:34:18Z</time>
      </trkpt>
      <trkpt lat="45.18482" lon="0.75743">
        <ele>86</ele>
        <time>2011-12-26T14:34:36Z</time>
      </trkpt>
      <trkpt lat="45.18517" lon="0.75806">
        <ele>87</ele>
        <time>2011-12-26T14:34:46Z</time>
      </trkpt>
      <trkpt lat="45.18541" lon="0.75894">
        <ele>88</ele>
        <time>2011-12-26T14:34:58Z</time>
      </trkpt>
      <trkpt lat="45.18578" lon="0.75972">
        <ele>87</ele>
        <time>2011-12-26T14:35:11Z</time>
      </trkpt>
      <trkpt lat="45.18614" lon="0.76032">
        <ele>87</ele>
        <time>2011-12-26T14:35:22Z</time>
      </trkpt>
      <trkpt lat="45.18628" lon="0.76045">
        <ele>87</ele>
        <time>2011-12-26T14:35:25Z</time>
      </trkpt>
      <trkpt lat="45.18643" lon="0.76044">
        <ele>87</ele>
        <time>2011-12-26T14:35:29Z</time>
      </trkpt>
      <trkpt lat="45.18668" lon="0.76064">
        <ele>89</ele>
        <time>2011-12-26T14:35:35Z</time>
      </trkpt>
      <trkpt lat="45.18702" lon="0.76137">
        <ele>90</ele>
        <time>2011-12-26T14:35:47Z</time>
      </trkpt>
      <trkpt lat="45.18762" lon="0.76259">
        <ele>91</ele>
        <time>2011-12-26T14:36:07Z</time>
      </trkpt>
      <trkpt lat="45.18772" lon="0.76276">
        <ele>91</ele>
        <time>2011-12-26T14:36:10Z</time>
      </trkpt>
      <trkpt lat="45.18785" lon="0.76308">
        <ele>91</ele>
        <time>2011-12-26T14:36:15Z</time>
      </trkpt>
      <trkpt lat="45.18796" lon="0.76359">
        <ele>92</ele>
        <time>2011-12-26T14:36:26Z</time>
      </trkpt>
      <trkpt lat="45.18802" lon="0.76393">
        <ele>92</ele>
        <time>2011-12-26T14:36:31Z</time>
      </trkpt>
      <trkpt lat="45.18811" lon="0.7644">
        <ele>92</ele>
        <time>2011-12-26T14:36:41Z</time>
      </trkpt>
      <trkpt lat="45.18813" lon="0.76452">
        <ele>92</ele>
        <time>2011-12-26T14:36:43Z</time>
      </trkpt>
      <trkpt lat="45.18832" lon="0.7652">
        <ele>93</ele>
        <time>2011-12-26T14:36:52Z</time>
      </trkpt>
      <trkpt lat="45.18885" lon="0.76622">
        <ele>94</ele>
        <time>2011-12-26T14:37:10Z</time>
      </trkpt>
      <trkpt lat="45.18888" lon="0.76628">
        <ele>94</ele>
        <time>2011-12-26T14:37:11Z</time>
      </trkpt>
      <trkpt lat="45.18936" lon="0.76747">
        <ele>94</ele>
        <time>2011-12-26T14:37:30Z</time>
      </trkpt>
      <trkpt lat="45.18956" lon="0.76856">
        <ele>94</ele>
        <time>2011-12-26T14:37:45Z</time>
      </trkpt>
      <trkpt lat="45.18976" lon="0.76932">
        <ele>92</ele>
        <time>2011-12-26T14:37:57Z</time>
      </trkpt>
      <trkpt lat="45.18992" lon="0.76972">
        <ele>92</ele>
        <time>2011-12-26T14:38:05Z</time>
      </trkpt>
      <trkpt lat="45.19018" lon="0.77">
        <ele>97</ele>
        <time>2011-12-26T14:38:12Z</time>
      </trkpt>
      <trkpt lat="45.19032" lon="0.77018">
        <ele>100</ele>
        <time>2011-12-26T14:38:16Z</time>
      </trkpt>
      <trkpt lat="45.19039" lon="0.77036">
        <ele>101</ele>
        <time>2011-12-26T14:38:19Z</time>
      </trkpt>
      <trkpt lat="45.19043" lon="0.77074">
        <ele>100</ele>
        <time>2011-12-26T14:38:24Z</time>
      </trkpt>
      <trkpt lat="45.19053" lon="0.7712">
        <ele>97</ele>
        <time>2011-12-26T14:38:30Z</time>
      </trkpt>
      <trkpt lat="45.19061" lon="0.77159">
        <ele>97</ele>
        <time>2011-12-26T14:38:35Z</time>
      </trkpt>
      <trkpt lat="45.19057" lon="0.77263">
        <ele>94</ele>
        <time>2011-12-26T14:38:46Z</time>
      </trkpt>
      <trkpt lat="45.19057" lon="0.77291">
        <ele>94</ele>
        <time>2011-12-26T14:38:49Z</time>
      </trkpt>
      <trkpt lat="45.1906" lon="0.77319">
        <ele>94</ele>
        <time>2011-12-26T14:38:52Z</time>
      </trkpt>
      <trkpt lat="45.19067" lon="0.7737">
        <ele>94</ele>
        <time>2011-12-26T14:38:58Z</time>
      </trkpt>
      <trkpt lat="45.19065" lon="0.7741">
        <ele>94</ele>
        <time>2011-12-26T14:39:03Z</time>
      </trkpt>
      <trkpt lat="45.19052" lon="0.77485">
        <ele>95</ele>
        <time>2011-12-26T14:39:12Z</time>
      </trkpt>
      <trkpt lat="45.19031" lon="0.77644">
        <ele>94</ele>
        <time>2011-12-26T14:39:29Z</time>
      </trkpt>
      <trkpt lat="45.1902" lon="0.77683">
        <ele>94</ele>
        <time>2011-12-26T14:39:34Z</time>
      </trkpt>
      <trkpt lat="45.18994" lon="0.77747">
        <ele>92</ele>
        <time>2011-12-26T14:39:45Z</time>
      </trkpt>
      <trkpt lat="45.18987" lon="0.7779">
        <ele>91</ele>
        <time>2011-12-26T14:39:51Z</time>
      </trkpt>
      <trkpt lat="45.18987" lon="0.77804">
        <ele>91</ele>
        <time>2011-12-26T14:39:53Z</time>
      </trkpt>
      <trkpt lat="45.18981" lon="0.77833">
        <ele>91</ele>
        <time>2011-12-26T14:39:57Z</time>
      </trkpt>
      <trkpt lat="45.18964" lon="0.7789">
        <ele>91</ele>
        <time>2011-12-26T14:40:05Z</time>
      </trkpt>
      <trkpt lat="45.18961" lon="0.7792">
        <ele>90</ele>
        <time>2011-12-26T14:40:09Z</time>
      </trkpt>
      <trkpt lat="45.18956" lon="0.78046">
        <ele>89</ele>
        <time>2011-12-26T14:40:28Z</time>
      </trkpt>
      <trkpt lat="45.18955" lon="0.78082">
        <ele>90</ele>
        <time>2011-12-26T14:40:34Z</time>
      </trkpt>
      <trkpt lat="45.18959" lon="0.78117">
        <ele>92</ele>
        <time>2011-12-26T14:40:40Z</time>
      </trkpt>
      <trkpt lat="45.18964" lon="0.78132">
        <ele>92</ele>
        <time>2011-12-26T14:40:43Z</time>
      </trkpt>
      <trkpt lat="45.18969" lon="0.78143">
        <ele>92</ele>
        <time>2011-12-26T14:40:45Z</time>
      </trkpt>
      <trkpt lat="45.18983" lon="0.78167">
        <ele>93</ele>
        <time>2011-12-26T14:40:50Z</time>
      </trkpt>
      <trkpt lat="45.18992" lon="0.78173">
        <ele>93</ele>
        <time>2011-12-26T14:40:52Z</time>
      </trkpt>
      <trkpt lat="45.19009" lon="0.78179">
        <ele>94</ele>
        <time>2011-12-26T14:40:55Z</time>
      </trkpt>
      <trkpt lat="45.1906" lon="0.78175">
        <ele>94</ele>
        <time>2011-12-26T14:41:06Z</time>
      </trkpt>
      <trkpt lat="45.19084" lon="0.78173">
        <ele>94</ele>
        <time>2011-12-26T14:41:11Z</time>
      </trkpt>
      <trkpt lat="45.19121" lon="0.7817">
        <ele>93</ele>
        <time>2011-12-26T14:41:20Z</time>
      </trkpt>
      <trkpt lat="45.19167" lon="0.78157">
        <ele>93</ele>
        <time>2011-12-26T14:41:29Z</time>
      </trkpt>
      <trkpt lat="45.19202" lon="0.7815">
        <ele>94</ele>
        <time>2011-12-26T14:41:39Z</time>
      </trkpt>
      <trkpt lat="45.19235" lon="0.78141">
        <ele>94</ele>
        <time>2011-12-26T14:41:48Z</time>
      </trkpt>
      <trkpt lat="45.19257" lon="0.78138">
        <ele>94</ele>
        <time>2011-12-26T14:41:53Z</time>
      </trkpt>
      <trkpt lat="45.1928" lon="0.78134">
        <ele>94</ele>
        <time>2011-12-26T14:41:58Z</time>
      </trkpt>
      <trkpt lat="45.19311" lon="0.78129">
        <ele>94</ele>
        <time>2011-12-26T14:42:06Z</time>
      </trkpt>
      <trkpt lat="45.19306" lon="0.78151">
        <ele>94</ele>
        <time>2011-12-26T14:42:13Z</time>
      </trkpt>
      <trkpt lat="45.19296" lon="0.78154">
        <ele>94</ele>
        <time>2011-12-26T14:42:15Z</time>
      </trkpt>
      <trkpt lat="45.19178" lon="0.7818">
        <ele>92</ele>
        <time>2011-12-26T14:42:34Z</time>
      </trkpt>
      <trkpt lat="45.19047" lon="0.78208">
        <ele>93</ele>
        <time>2011-12-26T14:42:54Z</time>
      </trkpt>
      <trkpt lat="45.18919" lon="0.78213">
        <ele>92</ele>
        <time>2011-12-26T14:43:15Z</time>
      </trkpt>
      <trkpt lat="45.18793" lon="0.78214">
        <ele>91</ele>
        <time>2011-12-26T14:43:34Z</time>
      </trkpt>
      <trkpt lat="45.18644" lon="0.78216">
        <ele>95</ele>
        <time>2011-12-26T14:43:55Z</time>
      </trkpt>
      <trkpt lat="45.18587" lon="0.78228">
        <ele>97</ele>
        <time>2011-12-26T14:44:04Z</time>
      </trkpt>
      <trkpt lat="45.18568" lon="0.78231">
        <ele>98</ele>
        <time>2011-12-26T14:44:08Z</time>
      </trkpt>
      <trkpt lat="45.18558" lon="0.78268">
        <ele>98</ele>
        <time>2011-12-26T14:44:15Z</time>
      </trkpt>
      <trkpt lat="45.18565" lon="0.7828">
        <ele>98</ele>
        <time>2011-12-26T14:44:17Z</time>
      </trkpt>
      <trkpt lat="45.18575" lon="0.78291">
        <ele>98</ele>
        <time>2011-12-26T14:44:19Z</time>
      </trkpt>
      <trkpt lat="45.18671" lon="0.7845">
        <ele>94</ele>
        <time>2011-12-26T14:44:41Z</time>
      </trkpt>
      <trkpt lat="45.18709" lon="0.78518">
        <ele>94</ele>
        <time>2011-12-26T14:44:50Z</time>
      </trkpt>
      <trkpt lat="45.18717" lon="0.78551">
        <ele>94</ele>
        <time>2011-12-26T14:44:54Z</time>
      </trkpt>
      <trkpt lat="45.18716" lon="0.78569">
        <ele>94</ele>
        <time>2011-12-26T14:44:56Z</time>
      </trkpt>
      <trkpt lat="45.18736" lon="0.78598">
        <ele>94</ele>
        <time>2011-12-26T14:45:01Z</time>
      </trkpt>
      <trkpt lat="45.18748" lon="0.78602">
        <ele>94</ele>
        <time>2011-12-26T14:45:03Z</time>
      </trkpt>
      <trkpt lat="45.18768" lon="0.78621">
        <ele>92</ele>
        <time>2011-12-26T14:45:07Z</time>
      </trkpt>
      <trkpt lat="45.18859" lon="0.78785">
        <ele>92</ele>
        <time>2011-12-26T14:45:30Z</time>
      </trkpt>
      <trkpt lat="45.18931" lon="0.78942">
        <ele>92</ele>
        <time>2011-12-26T14:45:50Z</time>
      </trkpt>
      <trkpt lat="45.18959" lon="0.7911">
        <ele>93</ele>
        <time>2011-12-26T14:46:09Z</time>
      </trkpt>
      <trkpt lat="45.18975" lon="0.7924">
        <ele>93</ele>
        <time>2011-12-26T14:46:25Z</time>
      </trkpt>
      <trkpt lat="45.18981" lon="0.79269">
        <ele>93</ele>
        <time>2011-12-26T14:46:29Z</time>
      </trkpt>
      <trkpt lat="45.18967" lon="0.793">
        <ele>93</ele>
        <time>2011-12-26T14:46:36Z</time>
      </trkpt>
      <trkpt lat="45.18956" lon="0.79303">
        <ele>94</ele>
        <time>2011-12-26T14:46:39Z</time>
      </trkpt>
      <trkpt lat="45.18947" lon="0.79284">
        <ele>94</ele>
        <time>2011-12-26T14:46:43Z</time>
      </trkpt>
      <trkpt lat="45.18932" lon="0.79176">
        <ele>94</ele>
        <time>2011-12-26T14:46:58Z</time>
      </trkpt>
      <trkpt lat="45.18924" lon="0.79122">
        <ele>94</ele>
        <time>2011-12-26T14:47:06Z</time>
      </trkpt>
      <trkpt lat="45.18906" lon="0.79111">
        <ele>95</ele>
        <time>2011-12-26T14:47:11Z</time>
      </trkpt>
      <trkpt lat="45.18859" lon="0.79125">
        <ele>94</ele>
        <time>2011-12-26T14:47:22Z</time>
      </trkpt>
      <trkpt lat="45.18848" lon="0.7911">
        <ele>94</ele>
        <time>2011-12-26T14:47:27Z</time>
      </trkpt>
      <trkpt lat="45.18843" lon="0.79105">
        <ele>94</ele>
        <time>2011-12-26T14:47:38Z</time>
      </trkpt>
      <trkpt lat="45.18842" lon="0.79105">
        <ele>94</ele>
        <time>2011-12-26T14:48:05Z</time>
      </trkpt>
    </trkseg>
  </trk>
</gpx>